Date StartTime U_cm/s V_cm/s W_cm/s Ustd_cm/s Vstd_cm/s Wstd_cm/s Uvar_(cm/s)^2 Vvar_(cm/s)^2 Wvar_(cm/s)^2 KE_(m/s)^2 TurbulentKE_(m/s)^2 HorizWindSpeed_cm/s FrictionSpeec_cm/s DragCoef SpeedOfSound_m/s SonicTemperature_C Pressure_mb 
08/20/2014  10:41:00       71.039      -52.597        2.014       78.367       92.143       57.238     6141.442     8490.396     3276.226        1.286        0.895       88.391       60.194        0.464      346.924       25.520      859.280
08/20/2014  10:42:00      135.711     -165.077      -36.447       88.320      125.121       57.120     7800.427    15655.184     3262.721        3.685        1.336      213.701       49.754        0.054      346.572       24.912      859.242
08/20/2014  10:43:00       87.175       -9.134       67.953       94.814      132.178       78.155     8989.749    17470.998     6108.204        2.243        1.628       87.652       93.493        1.138      346.859       25.408      859.234
08/20/2014  10:44:00       32.746       69.245      127.907       56.619       89.048       49.105     3205.709     7929.610     2411.279        1.788        0.677       76.598       53.619        0.490      346.982       25.621      859.237
08/20/2014  10:45:00       61.290      112.445      151.745      100.421      125.478       90.677    10084.429    15744.677     8222.380        3.673        1.703      128.064       97.810        0.583      346.786       25.282      859.202
08/20/2014  10:46:00      126.728      -85.495        7.646      107.283      110.058       79.985    11509.632    12112.688     6397.543        2.672        1.501      152.871       91.120        0.355      346.641       25.032      859.232
08/20/2014  10:47:00       29.891       18.654       64.392       41.461       68.740       35.692     1718.996     4725.223     1273.902        0.655        0.386       35.234       30.574        0.753      346.824       25.350      859.261
08/20/2014  10:48:00      -12.085        9.327       24.648       23.964       17.777       19.865      574.255      316.008      394.617        0.106        0.064       15.266       15.466        1.026      347.280       26.136      859.259
08/20/2014  10:49:00      112.758     -136.347      -10.897       58.467       58.795       31.736     3418.410     3456.845     1007.145        1.965        0.394      176.932       32.367        0.033      346.648       25.044      859.258
08/20/2014  10:50:00       60.339       54.532       79.390       47.779       91.084       44.804     2282.833     8296.361     2007.414        1.275        0.629       81.329       27.338        0.113      346.935       25.541      859.256
08/20/2014  10:51:00       49.505       55.878       30.588       43.679       37.454       36.167     1907.866     1402.789     1308.037        0.556        0.231       74.654       24.691        0.109      347.001       25.655      859.251
08/20/2014  10:52:00        8.079      -41.909       15.004       69.709       81.862       42.391     4859.327     6701.371     1796.982        0.770        0.668       42.681       40.286        0.891      347.071       25.774      859.245
08/20/2014  10:53:00       49.021       -0.383       42.532       58.621       50.713       40.519     3436.427     2571.770     1641.808        0.593        0.383       49.022       45.289        0.853      347.105       25.835      859.240
08/20/2014  10:54:00       34.877        7.194       54.265       60.340       82.063       59.740     3640.914     6734.308     3568.879        0.908        0.697       35.611       63.075        3.137      347.159       25.926      859.225
08/20/2014  10:55:00       49.414      -46.334       44.664       62.171       97.380       62.201     3865.204     9482.921     3868.984        1.190        0.861       67.740       67.173        0.983      347.171       25.947      859.214
08/20/2014  10:56:00       66.649     -118.279       -4.338       77.491       79.635       48.595     6004.857     6341.772     2361.483        1.658        0.735      135.764       44.843        0.109      346.809       25.323      859.216
08/20/2014  10:57:00       32.184        2.201       62.452       54.477       90.724       65.945     2967.753     8230.757     4348.764        1.024        0.777       32.259       67.244        4.345      347.152       25.915      859.229
08/20/2014  10:58:00       67.729        0.749       35.810       84.339       64.381       40.345     7113.085     4144.954     1627.693        0.938        0.644       67.733       33.227        0.241      347.116       25.852      859.220
08/20/2014  10:59:00      110.612      -94.402       26.080       86.753      134.761       82.143     7526.060    18160.571     6747.487        2.712        1.622      145.419       98.197        0.456      346.811       25.326      859.212
08/20/2014  11:00:00       48.337      102.708      131.778       71.952       68.989       48.163     5177.146     4759.540     2319.635        2.125        0.613      113.514       49.622        0.191      346.765       25.247      859.229
08/20/2014  11:01:00       47.732       56.644       63.288       50.604       43.370       38.809     2560.757     1880.956     1506.159        0.772        0.297       74.073       20.020        0.073      346.939       25.547      859.232
08/20/2014  11:02:00      102.317       81.974       34.310       83.819       46.361       53.782     7025.603     2149.300     2892.489        1.521        0.603      131.104       28.201        0.046      346.830       25.361      859.213
08/20/2014  11:03:00      121.804       87.876        2.184       69.957       39.954       46.132     4894.028     1596.352     2128.195        1.559        0.431      150.194       20.949        0.019      346.785       25.283      859.198
08/20/2014  11:04:00       52.984       42.291       25.318       31.050       41.114       36.877      964.124     1690.366     1359.918        0.462        0.201       67.793       22.697        0.112      346.705       25.145      859.195
08/20/2014  11:05:00       67.735       67.690       83.292       45.668       71.154       45.983     2085.596     5062.890     2114.461        1.268        0.463       95.761       43.300        0.204      346.928       25.529      859.196
08/20/2014  11:06:00      137.567      -30.709       21.188       83.395      161.525       67.657     6954.772    26090.391     4577.483        2.896        1.881      140.953       86.330        0.375      346.907       25.489      859.171
08/20/2014  11:07:00       63.632      107.447      125.121       74.974      102.108       68.366     5621.119    10425.980     4673.887        2.598        1.036      124.876       64.790        0.269      346.987       25.628      859.166
08/20/2014  11:08:00       70.239       49.755       42.348       62.401       71.712       39.546     3893.837     5142.651     1563.882        0.990        0.530       86.076       37.583        0.191      346.730       25.189      859.169
08/20/2014  11:09:00       90.961       34.145       14.740       68.109       63.112       41.898     4638.784     3983.162     1755.403        1.002        0.519       97.158       28.777        0.088      346.581       24.932      859.162
08/20/2014  11:10:00       18.976       -9.298       37.859       27.266       69.014       45.828      743.456     4762.986     2100.220        0.474        0.380       21.132       43.468        4.231      347.245       26.075      859.136
08/20/2014  11:11:00       67.366      102.303       97.058       82.166       52.872       56.629     6751.209     2795.489     3206.859        1.859        0.638      122.491       55.541        0.206      347.091       25.808      859.133
08/20/2014  11:12:00       19.775       20.337       27.990       31.816       53.230       33.288     1012.255     2833.429     1108.070        0.327        0.248       28.366       30.294        1.140      347.201       25.999      859.152
08/20/2014  11:13:00       50.225       65.896       66.912       55.277       51.543       40.563     3055.582     2656.660     1645.345        0.935        0.368       82.854       32.796        0.157      347.242       26.071      859.147
08/20/2014  11:14:00      134.573      122.531      103.892       75.311       57.384       48.342     5671.719     3292.913     2336.970        2.761        0.565      181.999       38.303        0.044      346.720       25.168      859.136
08/20/2014  11:15:00       88.514       67.987       43.522       86.260       52.843       50.162     7440.772     2792.379     2516.252        1.355        0.637      111.611       42.343        0.144      347.214       26.021      859.142
08/20/2014  11:16:00       13.708       49.469       48.377       33.548       37.567       29.493     1125.479     1411.269      869.825        0.419        0.170       51.333       21.258        0.172      347.617       26.718      859.137
08/20/2014  11:17:00       56.299       26.088       30.750       44.790       70.556       45.685     2006.100     4978.125     2087.086        0.693        0.454       62.050       29.540        0.227      347.448       26.425      859.127
08/20/2014  11:18:00       69.994       -5.796       20.456       77.501       54.871       34.384     6006.403     3010.833     1182.274        0.777        0.510       70.234       27.492        0.153      347.079       25.789      859.136
08/20/2014  11:19:00        1.519      -70.750       -1.298       21.257       63.742       28.888      451.876     4063.054      834.503        0.518        0.267       70.766       23.129        0.107      346.847       25.391      859.096
08/20/2014  11:20:00       60.143       75.038       65.505       67.747       54.524       42.745     4589.618     2972.915     1827.110        1.146        0.469       96.166       29.329        0.093      347.772       26.984      859.079
08/20/2014  11:21:00       91.363       75.989        8.444       82.531       48.175       45.691     6811.349     2320.860     2087.669        1.270        0.561      118.833       38.199        0.103      347.508       26.528      859.061
08/20/2014  11:22:00       82.860       74.201        5.774       48.844       36.750       32.232     2385.719     1350.581     1038.920        0.859        0.239      111.228       20.848        0.035      347.197       25.991      859.039
08/20/2014  11:23:00       72.322       55.887        9.207       53.923       38.360       39.661     2907.709     1471.462     1572.977        0.719        0.298       91.400       25.027        0.075      347.138       25.889      859.018
08/20/2014  11:24:00      105.583       62.839       34.515      127.011       92.150       62.981    16131.856     8491.578     3966.571        2.243        1.430      122.868       40.979        0.111      347.256       26.091      858.983
08/20/2014  11:25:00       -9.108     -172.073      -15.222       99.560      115.596       55.218     9912.134    13362.543     3049.010        2.812        1.316      172.313       69.923        0.165      347.269       26.114      858.973
08/20/2014  11:26:00      -26.224      -65.675       -0.581       67.748       59.289       39.208     4589.801     3515.152     1537.259        0.732        0.482       70.717       34.333        0.236      347.485       26.488      858.965
08/20/2014  11:27:00      -52.754      -67.002       18.777       65.030       76.310       43.174     4228.957     5823.257     1864.010        0.977        0.596       85.278       40.408        0.225      347.577       26.648      858.968
08/20/2014  11:28:00      -37.053     -120.888        4.893       53.565       60.039       34.806     2869.254     3604.655     1211.473        1.185        0.384      126.439       18.791        0.022      347.004       25.659      858.971
08/20/2014  11:29:00      -58.959      -31.091       -4.531       39.077       36.037       24.128     1527.027     1298.642      582.140        0.393        0.170       66.654       14.076        0.045      347.168       25.941      858.955
08/20/2014  11:30:00     -102.605      -69.599      -27.462       47.754       67.651       34.306     2280.441     4576.712     1176.885        1.208        0.402      123.983       27.518        0.049      346.945       25.557      858.956
08/20/2014  11:31:00      -85.636       26.912       -4.660       44.443       27.208       24.219     1975.212      740.270      586.580        0.569        0.165       89.765       23.596        0.069      346.997       25.647      858.944
08/20/2014  11:32:00      -82.018       36.075      -16.629       41.434       37.353       26.110     1716.765     1395.244      681.731        0.605        0.190       89.601       20.016        0.050      347.090       25.806      858.939
08/20/2014  11:33:00      -59.828       89.154        5.997       39.069       48.446       38.514     1526.350     2347.022     1483.311        0.846        0.268      107.368       36.873        0.118      347.333       26.227      858.921
08/20/2014  11:34:00      -46.697      115.122        1.018       43.359       45.009       33.742     1879.982     2025.772     1138.525        1.024        0.252      124.232       28.445        0.052      347.483       26.486      858.912
08/20/2014  11:35:00      -19.569       51.556        6.472       47.281       40.394       35.569     2235.516     1631.697     1265.158        0.411        0.257       55.145       26.687        0.234      347.389       26.323      858.923
08/20/2014  11:36:00      -11.386       74.587        6.669       42.367       49.938       33.824     1794.921     2493.780     1144.085        0.558        0.272       75.451       26.187        0.120      347.677       26.820      858.922
08/20/2014  11:37:00      -30.461      114.999        5.007       46.411       78.748       34.576     2153.992     6201.311     1195.529        1.186        0.478      118.965       27.922        0.055      347.710       26.875      858.925
08/20/2014  11:38:00        5.793       53.502       24.034       39.705       71.509       35.027     1576.517     5113.491     1226.922        0.569        0.396       53.814       35.942        0.446      348.016       27.405      858.911
08/20/2014  11:39:00      -15.946       59.332      -11.777       28.445       33.274       28.371      809.111     1107.138      804.894        0.332        0.136       61.437       18.988        0.096      347.523       26.554      858.911
08/20/2014  11:40:00        8.947       73.077       12.221       36.139       49.684       33.127     1306.043     2468.478     1097.397        0.522        0.244       73.623       27.277        0.137      348.046       27.458      858.908
08/20/2014  11:41:00       81.389       75.263       40.303       67.976       40.646       39.888     4620.706     1652.123     1591.072        1.089        0.393      110.855       37.762        0.116      347.963       27.312      858.889
08/20/2014  11:42:00       57.949       58.186       17.615       76.296       55.128       44.320     5821.125     3039.117     1964.257        0.894        0.541       82.120       20.893        0.065      347.856       27.128      858.868
08/20/2014  11:43:00       49.992       41.204       -1.715       72.343       64.434       38.861     5233.557     4151.683     1510.154        0.755        0.545       64.784       34.872        0.290      347.881       27.172      858.843
08/20/2014  11:44:00      -55.260      -92.967       -8.605      132.598       68.002       41.990    17582.134     4624.221     1763.151        1.787        1.198      108.151       22.819        0.045      348.013       27.399      858.816
08/20/2014  11:45:00      -54.025      -21.203        7.215       90.258       59.132       37.480     8146.513     3496.615     1404.736        0.823        0.652       58.037       42.293        0.531      347.729       26.910      858.835
08/20/2014  11:46:00      -76.263      -58.944      -10.720       42.511       90.061       38.879     1807.143     8110.935     1511.584        1.042        0.571       96.387       41.395        0.184      347.742       26.931      858.820
08/20/2014  11:47:00      -94.495      -80.047        1.416       65.866       65.117       46.425     4338.346     4240.229     2155.280        1.303        0.537      123.842       35.357        0.082      347.933       27.263      858.824
08/20/2014  11:48:00     -105.575     -103.572       11.819       87.942       69.028       43.364     7733.859     4764.854     1880.462        1.819        0.719      147.896       42.020        0.081      347.571       26.636      858.835
08/20/2014  11:49:00     -156.036     -109.306       -2.491       65.192       81.435       35.596     4250.014     6631.660     1267.067        2.422        0.607      190.513       36.373        0.036      347.176       25.954      858.839
08/20/2014  11:50:00     -166.696     -109.849       -8.279       52.248       40.084       27.916     2729.859     1606.755      779.296        2.252        0.256      199.635       28.277        0.020      347.158       25.922      858.834
08/20/2014  11:51:00      -66.689      -90.309      -13.732       87.482       56.009       34.453     7653.096     3137.033     1187.007        1.238        0.599      112.264       21.544        0.037      347.060       25.754      858.832
08/20/2014  11:52:00       -1.717      -34.252       12.552       35.569       48.755       40.368     1265.164     2377.066     1629.538        0.330        0.264       34.295       33.365        0.947      347.743       26.933      858.808
08/20/2014  11:53:00      -44.885       24.918      -17.140       34.152       35.671       32.280     1166.341     1272.409     1042.011        0.320        0.174       51.338       17.003        0.110      347.289       26.150      858.781
08/20/2014  11:54:00        5.451       12.768        0.083       27.201       31.891       24.082      739.894     1017.020      579.926        0.126        0.117       13.883       20.626        2.207      347.427       26.390      858.771
08/20/2014  11:55:00      -67.221       31.469        3.835       45.435       30.213       29.188     2064.364      912.839      851.940        0.468        0.191       74.222       28.369        0.146      347.627       26.735      858.753
08/20/2014  11:56:00      -68.939       98.256       -2.384       47.655       45.549       38.048     2271.034     2074.756     1447.617        1.010        0.290      120.029       33.943        0.080      347.821       27.068      858.742
08/20/2014  11:57:00      -21.395       81.310       11.728       44.322       76.026       34.019     1964.432     5779.948     1157.265        0.805        0.445       84.078       32.852        0.153      348.417       28.100      858.727
08/20/2014  11:58:00       18.741       31.378       16.089       34.910       60.091       35.432     1218.721     3610.882     1255.393        0.384        0.304       36.548       22.355        0.374      348.358       27.997      858.733
08/20/2014  11:59:00      -73.391       -9.427        7.972       77.999       56.949       40.768     6083.826     3243.137     1662.061        0.826        0.549       73.994       54.180        0.536      348.026       27.423      858.716
08/20/2014  12:00:00       46.190       38.532       47.855       68.400       42.899       36.435     4678.522     1840.325     1327.489        0.688        0.392       60.152       30.502        0.257      348.286       27.871      858.721
08/20/2014  12:01:00      -28.624      -57.287       52.626       39.397      106.248       55.369     1552.140    11288.688     3065.750        1.139        0.795       64.040       66.493        1.078      348.437       28.133      858.711
08/20/2014  12:02:00       26.599        0.554       52.483       46.085       84.868       52.892     2123.815     7202.639     2797.591        0.779        0.606       26.604       58.292        4.801      348.042       27.450      858.719
08/20/2014  12:03:00       48.664       -8.527       28.085       65.348       51.733       38.074     4270.319     2676.288     1449.664        0.581        0.420       49.405       24.962        0.255      347.975       27.334      858.707
08/20/2014  12:04:00      -67.699       15.802       -2.882       25.375       22.554       21.384      643.875      508.669      457.255        0.323        0.080       69.519       15.114        0.047      347.459       26.444      858.685
08/20/2014  12:05:00       -0.087        8.087       20.984       28.460       15.669       18.723      809.947      245.518      350.562        0.096        0.070        8.087       10.888        1.813      348.396       28.061      858.662
08/20/2014  12:06:00      -16.385        5.760       17.144       29.589       24.443       16.693      875.485      597.478      278.652        0.117        0.088       17.368       17.350        0.998      348.279       27.860      858.650
08/20/2014  12:07:00       -1.837      -68.609        7.055       38.437       65.774       40.010     1477.368     4326.187     1600.801        0.608        0.370       68.634       40.654        0.351      348.228       27.772      858.643
08/20/2014  12:08:00       32.298      -39.263       21.949       48.142       82.039       50.345     2317.652     6730.324     2534.625        0.732        0.579       50.840       55.045        1.172      348.310       27.913      858.627
08/20/2014  12:09:00       27.268      -80.587      -11.276       46.657       57.853       25.633     2176.892     3346.966      657.065        0.677        0.309       85.075       30.347        0.127      347.723       26.901      858.617
08/20/2014  12:10:00      -91.935      -33.628        3.581       73.283       59.521       28.398     5370.383     3542.751      806.424        0.966        0.486       97.892       25.389        0.067      347.952       27.294      858.590
08/20/2014  12:11:00     -122.486      -44.574        4.708       57.883       58.670       30.269     3350.399     3442.153      916.198        1.236        0.385      130.344       21.550        0.027      347.718       26.890      858.578
08/20/2014  12:12:00      -96.541      -50.109        1.347       71.311       39.742       35.247     5085.275     1579.417     1242.342        0.987        0.395      108.771       32.867        0.091      347.753       26.949      858.565
08/20/2014  12:13:00      -80.761      -66.538       -3.083       39.581       31.918       19.697     1566.646     1018.757      387.969        0.697        0.149      104.640       16.732        0.026      347.592       26.672      858.565
08/20/2014  12:14:00      -22.271        4.772       18.715       40.069       42.668       32.726     1605.504     1820.537     1070.971        0.268        0.225       22.777       29.189        1.642      347.965       27.316      858.559
08/20/2014  12:15:00       39.338       24.413       27.246       37.011       25.997       29.635     1369.812      675.848      878.250        0.290        0.146       46.298       13.420        0.084      348.179       27.687      858.565
08/20/2014  12:16:00       41.577       40.462       16.740       80.252       38.209       36.443     6440.357     1459.921     1328.069        0.644        0.461       58.015       27.600        0.226      348.560       28.347      858.552
08/20/2014  12:17:00      148.931       90.225       -0.730       66.560       55.864       37.648     4430.232     3120.761     1417.399        1.964        0.448      174.129       28.426        0.027      347.794       27.021      858.559
08/20/2014  12:18:00      106.197       45.218        2.235       37.570       44.983       34.796     1411.514     2023.434     1210.762        0.899        0.232      115.423       13.463        0.014      347.983       27.349      858.546
08/20/2014  12:19:00       53.261       69.203        8.155       56.887       49.481       36.467     3236.159     2448.329     1329.874        0.735        0.351       87.325       31.265        0.128      348.183       27.694      858.538
08/20/2014  12:20:00       50.381       89.641       11.302       78.176       41.996       47.086     6111.537     1763.704     2217.081        1.039        0.505      102.829       35.884        0.122      348.451       28.158      858.524
08/20/2014  12:21:00       39.681       77.964       64.148       40.482       65.412       81.423     1638.818     4278.761     6629.661        1.216        0.627       87.481       64.056        0.536      348.163       27.657      858.525
08/20/2014  12:22:00       44.530      147.441      175.547       81.382       90.928       57.635     6623.031     8267.907     3321.820        3.637        0.911      154.019       58.754        0.146      348.027       27.423      858.501
08/20/2014  12:23:00      113.159      153.251      127.955      103.264       79.635       79.859    10663.488     6341.709     6377.426        3.802        1.169      190.501       66.182        0.121      347.863       27.138      858.513
08/20/2014  12:24:00      193.551      139.645       66.283       82.566       64.670       63.041     6817.160     4182.204     3974.138        3.816        0.749      238.669       46.551        0.038      347.768       26.972      858.495
08/20/2014  12:25:00       86.121      105.539       79.458       76.385       67.699       67.090     5834.674     4583.186     4501.060        1.989        0.746      136.218       65.512        0.231      347.973       27.331      858.473
08/20/2014  12:26:00      150.588       97.535       77.593      101.212       84.305       66.070    10243.903     7107.270     4365.310        2.996        1.086      179.416       47.603        0.070      348.036       27.437      858.442
08/20/2014  12:27:00      124.821       98.024       72.423      143.337       79.197       73.891    20545.368     6272.144     5459.861        3.135        1.614      158.711       63.652        0.161      347.904       27.209      858.449
08/20/2014  12:28:00       50.471       57.499       57.704       67.068       60.316       47.289     4498.102     3638.055     2236.291        0.978        0.519       76.508       41.303        0.291      348.096       27.541      858.414
08/20/2014  12:29:00       26.509       52.647       62.050       43.054       36.138       25.062     1853.614     1305.987      628.116        0.556        0.189       58.945       22.202        0.142      348.088       27.530      858.376
08/20/2014  12:30:00       80.030       57.928       55.666       86.509       63.024       54.577     7483.869     3972.047     2978.659        1.364        0.722       98.795       39.647        0.161      348.220       27.756      858.343
08/20/2014  12:31:00       89.082      -11.631       45.542       89.865       76.635       42.916     8075.663     5872.951     1841.813        1.296        0.790       89.838       52.063        0.336      348.581       28.381      858.328
08/20/2014  12:32:00       56.602       83.542      124.738       71.232       77.100       48.701     5074.021     5944.444     2371.768        1.956        0.670      100.911       42.631        0.178      348.527       28.287      858.314
08/20/2014  12:33:00      136.621      117.814       62.381       73.770       65.084       58.462     5441.986     4235.874     3417.783        2.476        0.655      180.404       39.798        0.049      348.280       27.857      858.293
08/20/2014  12:34:00       44.617       67.780       92.482       91.943       97.486       70.974     8453.501     9503.521     5037.238        1.906        1.150       81.147       65.670        0.655      348.591       28.398      858.287
08/20/2014  12:35:00      185.502      109.216      101.070       89.239       65.961       74.627     7963.525     4350.827     5569.157        3.722        0.894      215.265       58.408        0.074      348.044       27.449      858.295
08/20/2014  12:36:00      106.071       35.806       10.223       58.910       60.117       49.646     3470.435     3614.077     2464.702        1.109        0.477      111.951       30.473        0.074      347.876       27.163      858.294
08/20/2014  12:37:00      -45.648        4.638       -9.774       48.031       38.364       23.564     2307.020     1471.769      555.281        0.327        0.217       45.883       17.131        0.139      348.082       27.518      858.273
08/20/2014  12:38:00      -32.090       15.138       -5.238       36.920       20.949       19.693     1363.087      438.846      387.805        0.174        0.109       35.481        6.274        0.031      348.415       28.095      858.260
08/20/2014  12:39:00      -24.380       -7.977        3.710       22.651       17.323       14.047      513.090      300.076      197.311        0.084        0.051       25.652        7.916        0.095      348.781       28.728      858.241
08/20/2014  12:40:00      -14.579      -55.727       10.057       35.955       42.607       25.784     1292.785     1815.395      664.791        0.360        0.189       57.603       18.999        0.109      348.674       28.543      858.215
08/20/2014  12:41:00      -32.105      -49.785        8.340       65.106       45.515       33.498     4238.743     2071.580     1122.128        0.550        0.372       59.239       25.836        0.190      348.601       28.416      858.209
08/20/2014  12:42:00      -59.853      -50.701       12.313       47.258       52.566       31.886     2233.302     2763.197     1016.734        0.616        0.301       78.441       21.394        0.074      348.523       28.282      858.208
08/20/2014  12:43:00      -35.417      -17.548        5.960       34.311       30.395       23.510     1177.252      923.864      552.717        0.213        0.133       39.526       23.854        0.364      348.638       28.481      858.191
08/20/2014  12:44:00       15.726       25.886       42.890       22.362       28.847       15.498      500.048      832.173      240.199        0.216        0.079       30.289        9.065        0.090      349.201       29.455      858.154
08/20/2014  12:45:00       -4.721       38.194       71.353       43.159       66.127       49.239     1862.732     4372.809     2424.458        0.761        0.433       38.485       50.527        1.724      349.234       29.513      858.118
08/20/2014  12:46:00      124.647      104.639       83.034       97.802       58.547       65.398     9565.302     3427.798     4276.860        2.532        0.863      162.746       60.176        0.137      348.526       28.284      858.110
08/20/2014  12:47:00      129.997       85.079       36.676       78.048       59.971       72.739     6091.520     3596.475     5290.951        2.023        0.749      155.363       60.050        0.149      348.440       28.135      858.100
08/20/2014  12:48:00      145.491      110.309       12.234       46.117       43.706       41.391     2126.762     1910.227     1713.200        1.962        0.288      182.580       18.389        0.010      347.995       27.368      858.080
08/20/2014  12:49:00      127.652       80.014        6.943       45.856       35.133       32.583     2102.775     1234.329     1061.680        1.357        0.220      150.656       22.693        0.023      347.912       27.223      858.074
08/20/2014  12:50:00       60.708       50.735       10.782       45.052       31.761       30.667     2029.681     1008.781      940.466        0.518        0.199       79.117       10.336        0.017      348.302       27.899      858.031
08/20/2014  12:51:00       79.409       -9.421       33.788       77.826       50.014       35.074     6056.846     2501.427     1230.188        0.866        0.489       79.966       42.143        0.278      348.729       28.638      858.013
08/20/2014  12:52:00       34.913       52.584       44.182       54.037       50.877       43.072     2919.983     2588.427     1855.157        0.665        0.368       63.119       32.803        0.270      348.819       28.793      858.004
08/20/2014  12:53:00       -6.372        4.546       65.331       41.285       60.501       49.031     1704.467     3660.342     2404.011        0.605        0.388        7.827       44.764       32.707      349.347       29.710      857.994
08/20/2014  12:54:00       73.815       99.891      125.801       72.089       65.467       46.204     5196.783     4285.960     2134.779        2.143        0.581      124.205       38.745        0.097      348.669       28.534      857.979
08/20/2014  12:55:00       22.909      106.060       53.224       64.943       47.408       52.737     4217.601     2247.542     2781.171        1.192        0.462      108.506       54.873        0.256      348.317       27.924      857.963
08/20/2014  12:56:00      -27.045       95.390      -11.928       47.887       62.617       38.572     2293.201     3920.855     1487.806        0.884        0.385       99.150       33.377        0.113      348.639       28.483      857.944
08/20/2014  12:57:00       47.781       64.519        0.343       53.163       51.554       47.956     2826.313     2657.843     2299.741        0.711        0.389       80.285       39.417        0.241      348.874       28.888      857.914
08/20/2014  12:58:00       -3.936      117.825       -8.425       41.253       57.662       41.115     1701.784     3324.931     1690.477        1.034        0.336      117.890       32.741        0.077      348.783       28.731      857.898
08/20/2014  12:59:00       12.240       62.400       22.446       59.268       46.089       37.498     3512.651     2124.190     1406.101        0.579        0.352       63.589       32.248        0.257      349.193       29.441      857.879
08/20/2014  13:00:00      123.531       72.799       51.963       70.905       66.707       64.392     5027.534     4449.760     4146.273        1.844        0.681      143.386       42.046        0.086      348.797       28.755      857.872
08/20/2014  13:01:00       62.443       42.917        1.517       58.589       39.974       38.196     3432.691     1597.934     1458.936        0.612        0.324       75.769       22.490        0.088      348.748       28.672      857.847
08/20/2014  13:02:00       62.166       35.761       51.647       60.183       61.800       54.847     3622.043     3819.203     3008.157        0.913        0.522       71.718       47.416        0.437      348.825       28.805      857.815
08/20/2014  13:03:00       48.821       56.805       79.044       55.996       55.709       42.865     3135.543     3103.506     1837.375        0.997        0.404       74.902       38.633        0.266      348.951       29.022      857.793
08/20/2014  13:04:00       96.616       16.330       64.549      114.291      118.828       77.047    13062.374    14120.032     5936.226        2.344        1.656       97.987       78.159        0.636      348.815       28.785      857.785
08/20/2014  13:05:00       60.383      -55.882       31.054      124.878       99.308       64.524    15594.555     9862.160     4163.407        1.867        1.481       82.273       65.306        0.630      349.201       29.453      857.767
08/20/2014  13:06:00      134.717     -114.940       56.200      120.950      178.276       98.478    14628.896    31782.413     9697.911        4.530        2.805      177.087      118.334        0.447      349.011       29.124      857.763
08/20/2014  13:07:00      149.617     -169.996        3.245       73.773       91.453       51.543     5442.428     8363.718     2656.650        3.388        0.823      226.459       51.711        0.052      348.798       28.754      857.766
08/20/2014  13:08:00      115.552      -98.799       26.506       87.072      115.740       72.377     7581.501    13395.777     5238.405        2.501        1.311      152.031       85.815        0.319      349.347       29.706      857.763
08/20/2014  13:09:00       50.511      -71.908       47.331       87.212      106.992       59.100     7605.876    11447.217     3492.804        1.625        1.127       87.875       55.646        0.401      349.158       29.379      857.767
08/20/2014  13:10:00       97.591      -99.625       21.907      118.796      147.039       76.519    14112.488    21620.486     5855.215        3.075        2.079      139.460       97.433        0.488      348.855       28.853      857.732
08/20/2014  13:11:00        2.324     -120.563        3.312       57.925       66.905       52.594     3355.250     4476.268     2766.166        1.257        0.530      120.586       35.856        0.088      349.127       29.327      857.716
08/20/2014  13:12:00       77.383     -107.085       20.683       77.806       60.720       51.027     6053.847     3686.928     2603.760        1.511        0.617      132.119       40.701        0.095      348.913       28.954      857.710
08/20/2014  13:13:00       -0.305      -42.782       24.157       46.305       38.604       32.637     2144.115     1490.287     1065.160        0.356        0.235       42.783       26.089        0.372      349.287       29.605      857.678
08/20/2014  13:14:00      -59.870      -37.668       13.482       61.011       89.476       38.008     3722.318     8006.034     1444.599        0.918        0.659       70.734       37.401        0.280      349.045       29.186      857.668
08/20/2014  13:15:00      109.350     -105.026        8.540      111.855      108.051       74.783    12511.552    11675.089     5592.446        2.641        1.489      151.618       81.279        0.287      349.199       29.451      857.657
08/20/2014  13:16:00      113.606     -170.038        0.437      124.444      122.529       77.492    15486.433    15013.289     6005.012        3.915        1.825      204.497       87.882        0.185      348.965       29.043      857.652
08/20/2014  13:17:00      152.041     -172.411        8.008      164.859      184.612      118.520    27178.439    34081.720    14046.973        6.409        3.765      229.874      149.993        0.426      348.800       28.759      857.612
08/20/2014  13:18:00       55.022     -130.570       -1.791       76.835      104.532       72.103     5903.576    10926.963     5198.905        2.105        1.101      141.690       74.119        0.274      348.997       29.100      857.648
08/20/2014  13:19:00      -23.866       -9.433        9.600       67.281       39.697       35.915     4526.704     1575.883     1289.881        0.407        0.370       25.662       24.786        0.933      349.287       29.605      857.656
08/20/2014  13:20:00       64.366       54.026      129.465       84.493      183.651      113.871     7139.085    33727.781    12966.659        3.882        2.692       84.034      130.818        2.423      349.124       29.320      857.632
08/20/2014  13:21:00       68.792      106.189      102.937       62.404       72.065       74.612     3894.198     5193.330     5566.948        2.063        0.733      126.525       63.162        0.249      348.907       28.943      857.640
08/20/2014  13:22:00       70.687       50.959       34.107       65.074       53.350       36.303     4234.597     2846.240     1317.887        0.858        0.420       87.141       26.626        0.093      349.300       29.627      857.607
08/20/2014  13:23:00       49.837      -42.603       30.750       54.718      108.649       44.460     2994.099    11804.536     1976.701        1.101        0.839       65.565       53.747        0.672      349.550       30.059      857.586
08/20/2014  13:24:00       15.127       18.499       82.771       92.616      101.053       52.561     8577.764    10211.701     2762.625        1.448        1.078       23.897       48.036        4.041      349.550       30.060      857.567
08/20/2014  13:25:00       89.537        2.791       96.004      123.860      146.839       88.208    15341.407    21561.551     7780.619        3.095        2.234       89.581       72.663        0.658      349.724       30.360      857.532
08/20/2014  13:26:00      169.155      -61.495       56.111      145.022      188.188       96.921    21031.353    35414.709     9393.591        5.068        3.292      179.986      116.366        0.418      349.326       29.669      857.561
08/20/2014  13:27:00      102.731       -2.435       99.615      103.159       99.282       74.655    10641.815     9856.839     5573.441        2.327        1.304      102.760       63.444        0.381      349.228       29.500      857.602
08/20/2014  13:28:00       30.759       17.403       62.864       49.361       69.244       40.921     2436.498     4794.676     1674.526        0.705        0.445       35.341       46.931        1.763      349.313       29.649      857.595
08/20/2014  13:29:00       76.473       34.149       96.694       84.968       97.742       71.554     7219.607     9553.490     5119.957        1.912        1.095       83.751       64.687        0.597      349.433       29.857      857.549
08/20/2014  13:30:00       66.634       68.751       92.288       91.599       64.711       53.678     8390.306     4187.531     2881.353        1.657        0.773       95.744       31.954        0.111      349.547       30.053      857.567
08/20/2014  13:31:00        0.806       37.920       64.250       37.950       49.891       41.187     1440.174     2489.155     1696.331        0.559        0.281       37.929       41.079        1.173      349.795       30.487      857.583
08/20/2014  13:32:00       55.660       41.004       57.483       48.384       42.371       42.103     2340.982     1795.326     1772.677        0.700        0.295       69.133       34.242        0.245      349.374       29.756      857.559
08/20/2014  13:33:00      -21.976      -16.326       36.399       35.320       59.062       39.081     1247.484     3488.322     1527.360        0.417        0.313       27.377       38.987        2.028      349.604       30.154      857.538
08/20/2014  13:34:00      -32.160      -68.556       -6.627       23.020       69.844       27.693      529.932     4878.248      766.885        0.598        0.309       75.724       23.399        0.095      348.984       29.080      857.521
08/20/2014  13:35:00       -3.274       20.743       21.550       49.623       20.304       24.050     2462.452      412.272      578.397        0.218        0.173       21.000       22.012        1.099      349.407       29.812      857.498
08/20/2014  13:36:00       71.445       32.802       44.737       71.553       66.325       43.330     5119.788     4398.963     1877.488        0.979        0.570       78.615       33.475        0.181      349.253       29.546      857.470
08/20/2014  13:37:00      158.183      108.799       10.532       98.141       70.253       59.735     9631.601     4935.521     3568.279        2.755        0.907      191.987       44.285        0.053      349.251       29.540      857.417
08/20/2014  13:38:00      143.182      101.616       24.051       65.424       64.890       56.050     4280.237     4210.767     3141.587        2.152        0.582      175.576       23.580        0.018      349.024       29.146      857.394
08/20/2014  13:39:00      150.828       89.596        8.449       74.605       61.773       51.279     5565.886     3815.931     2629.526        2.143        0.601      175.432       33.529        0.037      349.200       29.450      857.383
08/20/2014  13:40:00       92.649       98.983        1.241       86.781       72.910       61.249     7530.865     5315.918     3751.412        1.749        0.830      135.578       46.084        0.116      349.085       29.253      857.377
08/20/2014  13:41:00       39.898       51.017       16.474       75.165       69.580       51.677     5649.761     4841.421     2670.501        0.881        0.658       64.766       38.816        0.359      349.301       29.627      857.355
08/20/2014  13:42:00       75.157     -136.907       17.052      102.166      134.517       62.171    10437.986    18094.942     3865.207        2.853        1.620      156.180       74.377        0.227      349.515       29.998      857.364
08/20/2014  13:43:00       38.122      -11.954       82.871       66.457      106.438       63.517     4416.518    11328.963     4034.384        1.412        0.989       39.952       59.608        2.226      349.718       30.352      857.364
08/20/2014  13:44:00       45.816     -167.541      -10.514       89.574       84.740       37.574     8023.413     7180.874     1411.832        2.344        0.831      173.692       35.992        0.043      349.324       29.666      857.405
08/20/2014  13:45:00      -23.535      -59.258        2.388       50.193       50.302       31.752     2519.321     2530.293     1008.186        0.506        0.303       63.761       17.538        0.076      349.413       29.823      857.418
08/20/2014  13:46:00     -180.487     -125.398      -11.487      123.528       73.911       48.111    15259.050     5462.779     2314.685        3.573        1.152      219.773       48.295        0.048      349.340       29.692      857.391
08/20/2014  13:47:00     -254.639     -198.983      -20.490       93.805      125.720       54.840     8799.463    15805.618     3007.438        6.623        1.381      323.165       30.220        0.009      349.025       29.147      857.398
08/20/2014  13:48:00     -102.877     -160.764      -12.794       85.757       50.009       34.887     7354.232     2500.877     1217.096        2.383        0.554      190.863       23.472        0.015      349.052       29.194      857.420
08/20/2014  13:49:00     -184.887     -128.823       -5.615      130.313      107.898       58.728    16981.442    11642.033     3448.988        4.143        1.604      225.341       46.413        0.042      349.075       29.235      857.409
08/20/2014  13:50:00      -64.636      -77.815       13.175       90.120       61.573       40.385     8121.569     3791.225     1630.937        1.197        0.677      101.158       35.712        0.125      348.996       29.099      857.428
08/20/2014  13:51:00      -71.582      -36.819       -1.356       59.135       39.227       30.201     3497.000     1538.746      912.127        0.621        0.297       80.496        9.376        0.014      349.190       29.435      857.417
08/20/2014  13:52:00      -12.944      -72.257       -3.218       61.094       55.208       24.173     3732.442     3047.886      584.328        0.638        0.368       73.407       26.385        0.129      349.147       29.361      857.415
08/20/2014  13:53:00       19.922      -16.975       66.467       43.671       93.184       65.665     1907.147     8683.326     4311.867        1.000        0.745       26.173       66.845        6.523      349.425       29.842      857.397
08/20/2014  13:54:00      -23.891      -15.683       18.549       46.038       45.233       32.785     2119.461     2046.027     1074.843        0.320        0.262       28.579       27.640        0.935      349.874       30.625      857.402
08/20/2014  13:55:00      -88.775      -72.026        0.452       58.084       56.765       31.405     3373.785     3222.304      986.289        1.032        0.379      114.318       31.797        0.077      349.286       29.603      857.395
08/20/2014  13:56:00     -223.900      -49.009       -9.037       80.253       57.574       33.309     6440.621     3314.772     1109.460        3.174        0.543      229.201       33.475        0.021      349.125       29.321      857.387
08/20/2014  13:57:00     -177.359      -37.571       -1.394       75.773       60.806       34.726     5741.520     3697.391     1205.881        2.176        0.532      181.295       35.805        0.039      349.440       29.868      857.391
08/20/2014  13:58:00     -277.188      -31.788      -11.810      118.572       89.964       52.894    14059.214     8093.577     2797.805        5.146        1.248      279.005       58.240        0.044      349.271       29.573      857.379
08/20/2014  13:59:00      -90.840       36.715       -0.099       96.139       64.685       37.931     9242.684     4184.139     1438.793        1.223        0.743       97.979       36.208        0.137      349.571       30.097      857.393
08/20/2014  14:00:00      -96.781      -79.117        4.829       85.879       98.297       41.952     7375.265     9662.340     1760.003        1.722        0.940      125.004       30.801        0.061      349.510       29.991      857.409
08/20/2014  14:01:00      -44.022     -282.595       -4.862      105.902      156.718       60.383    11215.170    24560.526     3646.105        6.061        1.971      286.003       54.393        0.036      349.403       29.801      857.428
08/20/2014  14:02:00     -209.262     -253.983      -16.148      117.310      163.728       65.656    13761.545    26806.750     4310.649        7.671        2.244      329.087       66.033        0.040      349.437       29.861      857.424
08/20/2014  14:03:00     -231.709     -143.549       11.427      153.504      106.665       75.074    23563.562    11377.498     5636.066        5.749        2.029      272.572       69.677        0.065      349.800       30.491      857.417
08/20/2014  14:04:00     -313.018     -163.229       -6.301      171.508      125.586       68.460    29415.165    15771.890     4686.819        8.726        2.494      353.021       73.727        0.044      349.408       29.811      857.416
08/20/2014  14:05:00     -163.948     -341.053      -12.590      109.522      150.555       61.579    11995.072    22666.911     3791.982        9.090        1.923      378.413       47.748        0.016      349.327       29.670      857.444
08/20/2014  14:06:00     -121.037     -138.959        9.378      120.277      126.041       67.804    14466.562    15886.221     4597.340        3.449        1.748      184.281       56.013        0.092      349.438       29.864      857.415
08/20/2014  14:07:00       57.402     -269.800      -44.028      176.470      145.051       85.267    31141.818    21039.807     7270.441        6.873        2.973      275.839       90.078        0.107      349.360       29.728      857.383
08/20/2014  14:08:00     -122.046     -116.253      -11.629      116.127       84.704       47.112    13485.532     7174.790     2219.567        2.571        1.144      168.552       32.714        0.038      349.417       29.828      857.393
08/20/2014  14:09:00      -59.473     -120.087        6.844       81.742       80.828       45.169     6681.833     6533.171     2040.275        1.663        0.763      134.007       30.409        0.051      349.257       29.551      857.377
08/20/2014  14:10:00      -79.848      -21.311        9.555       52.890       46.499       28.491     2797.330     2162.120      811.738        0.635        0.289       82.643       21.649        0.069      349.316       29.654      857.354
08/20/2014  14:11:00       -9.694      -86.795        9.728      125.531      136.925       64.049    15758.088    18748.520     4102.322        2.316        1.930       87.334       75.001        0.737      349.513       29.994      857.299
08/20/2014  14:12:00      -77.383     -174.159      -29.673       77.528       97.293       43.992     6010.633     9466.011     1935.257        2.730        0.871      190.576       36.111        0.036      349.332       29.679      857.285
08/20/2014  14:13:00     -117.940      -32.377        0.528       74.236       61.133       39.950     5511.018     3737.191     1595.984        1.290        0.542      122.304       42.602        0.121      349.798       30.490      857.302
08/20/2014  14:14:00     -321.600      -47.823      -11.652      118.515      151.836       67.725    14045.813    23054.146     4586.684        7.376        2.084      325.136       64.537        0.039      349.449       29.882      857.332
08/20/2014  14:15:00     -259.195     -104.012       10.290      157.880      105.485       54.644    24925.977    11127.166     2985.948        5.856        1.952      279.286       66.006        0.056      349.603       30.149      857.284
08/20/2014  14:16:00     -201.620     -129.390       23.153      187.884      117.322       78.928    35300.529    13764.462     6229.556        5.660        2.765      239.567       63.076        0.069      349.708       30.333      857.289
08/20/2014  14:17:00     -276.794     -199.734        4.540      179.331      124.924       56.021    32159.778    15605.918     3138.311        8.371        2.545      341.334       64.434        0.036      349.319       29.656      857.320
08/20/2014  14:18:00     -144.444     -276.879      -14.506      103.167      125.041       55.245    10643.450    15635.131     3052.006        6.353        1.467      312.291       49.978        0.026      349.148       29.359      857.306
08/20/2014  14:19:00     -164.241     -163.993      -11.363       76.845       62.985       45.696     5905.226     3967.102     2088.104        3.298        0.598      232.096       40.500        0.030      349.254       29.542      857.236
08/20/2014  14:20:00      -60.232     -183.021       -4.836       92.237       86.283       52.719     8507.572     7444.733     2779.282        2.794        0.937      192.678       30.023        0.024      349.452       29.888      857.215
08/20/2014  14:21:00       33.243     -191.583       -8.410      107.318       76.963       49.854    11517.063     5923.251     2485.458        2.890        0.996      194.445       39.622        0.042      349.413       29.821      857.175
08/20/2014  14:22:00      -31.166     -107.056       -8.050      124.785       90.115       49.740    15571.277     8120.735     2474.102        1.933        1.308      111.500       46.339        0.173      349.900       30.668      857.155
08/20/2014  14:23:00     -166.690     -140.365       14.850      144.380       81.657       58.744    20845.642     6667.924     3450.846        3.933        1.548      217.917       67.092        0.095      349.957       30.763      857.200
08/20/2014  14:24:00     -340.542     -296.283      -20.067      186.993      127.274       75.085    34966.268    16198.628     5637.788       13.047        2.840      451.390       66.111        0.021      349.426       29.842      857.171
08/20/2014  14:25:00     -351.052     -308.884       -2.287      220.085      178.048       90.002    48437.206    31701.098     8100.325       15.343        4.412      467.597      101.639        0.047      349.386       29.772      857.163
08/20/2014  14:26:00     -274.700     -398.087      -17.210      157.864      219.459       92.905    24920.920    48162.229     8631.348       15.796        4.086      483.666       90.810        0.035      349.430       29.849      857.172
08/20/2014  14:27:00     -258.016     -239.606        0.479      169.919      135.598       74.764    28872.505    18386.755     5589.652        8.841        2.642      352.113       71.441        0.041      349.589       30.124      857.209
08/20/2014  14:28:00     -148.841     -256.858        1.714      112.954      116.728       66.973    12758.514    13625.377     4485.424        5.949        1.543      296.867       57.849        0.038      349.314       29.647      857.206
08/20/2014  14:29:00      -94.993     -217.777       14.331      109.484      140.724       57.957    11986.726    19803.115     3359.058        4.590        1.757      237.593       51.652        0.047      349.361       29.730      857.163
08/20/2014  14:30:00     -120.994      -85.260        6.099       88.586       54.359       32.520     7847.550     2954.946     1057.538        1.690        0.593      148.016       28.341        0.037      349.303       29.631      857.128
08/20/2014  14:31:00     -136.958      -85.493       -4.349       72.504       62.080       36.955     5256.879     3853.979     1365.667        1.828        0.524      161.451       29.888        0.034      349.272       29.576      857.133
08/20/2014  14:32:00     -203.535      -45.821       -6.673      142.693      151.168       51.952    20361.194    22851.865     2699.061        4.473        2.296      208.629       65.306        0.098      349.677       30.280      857.138
08/20/2014  14:33:00     -125.113     -101.796       20.354      128.050      150.807       69.419    16396.686    22742.777     4818.959        3.519        2.198      161.293       69.024        0.183      349.762       30.427      857.109
08/20/2014  14:34:00     -257.025     -204.739       -3.941      210.508      184.953      119.378    44313.732    34207.549    14251.179       10.037        4.639      328.603      121.053        0.136      349.853       30.583      857.052
08/20/2014  14:35:00     -218.823      -70.331       14.623      155.432      125.387       78.457    24159.067    15721.782     6155.453        4.953        2.302      229.848       88.895        0.150      350.050       30.926      857.115
08/20/2014  14:36:00     -404.534       -8.400      -35.493      143.667      114.961       60.228    20640.294    13216.119     3627.416       10.122        1.874      404.621       62.945        0.024      349.402       29.799      857.101
08/20/2014  14:37:00     -155.664       14.653        1.173      143.985      113.853       64.044    20731.661    12962.570     4101.621        3.111        1.890      156.352       77.381        0.245      349.773       30.445      857.063
08/20/2014  14:38:00     -152.582     -118.133        5.249      143.070      101.672       58.849    20468.994    10337.161     3463.177        3.576        1.713      192.968       69.127        0.128      349.635       30.205      857.028
08/20/2014  14:39:00     -245.571      -22.915      -31.563       76.740       85.848       38.639     5888.984     7369.888     1493.003        3.829        0.738      246.638       21.499        0.008      349.251       29.537      857.030
08/20/2014  14:40:00      -79.222      -95.870      -17.591       65.387       71.263       43.935     4275.440     5078.460     1930.268        1.353        0.564      124.367       45.747        0.135      349.342       29.698      857.006
08/20/2014  14:41:00      -91.439      -93.277        1.265       91.447      103.636       58.679     8362.643    10740.324     3443.185        1.980        1.127      130.620       56.206        0.185      349.706       30.328      856.985
08/20/2014  14:42:00     -286.753     -170.026      -27.765      197.547       97.338       69.217    39024.914     9474.756     4791.034        8.259        2.665      333.371       72.414        0.047      349.652       30.234      856.980
08/20/2014  14:43:00     -382.377     -168.941       -4.687      230.178      122.112       73.188    52981.753    14911.415     5356.429       12.400        3.662      418.035       82.320        0.039      349.254       29.545      857.010
08/20/2014  14:44:00     -198.240     -169.280      -15.484      115.127      130.333       51.645    13254.278    16986.656     2667.235        5.054        1.645      260.682       50.743        0.038      349.094       29.267      856.953
08/20/2014  14:45:00     -259.259     -185.278       -0.579      161.054      100.272       71.510    25938.308    10054.563     5113.636        7.132        2.055      318.659       59.830        0.035      349.455       29.892      856.901
08/20/2014  14:46:00     -364.416     -135.163      -11.869      198.938      168.196       97.392    39576.338    28289.980     9485.148       11.426        3.868      388.675       88.410        0.052      349.797       30.486      856.884
08/20/2014  14:47:00     -385.669     -182.261        3.354      215.043      159.780       86.604    46243.594    25529.700     7500.295       13.061        3.964      426.568       91.490        0.046      349.784       30.465      856.927
08/20/2014  14:48:00     -218.345      -20.776      -10.945      178.077      124.063       78.449    31711.491    15391.524     6154.205        5.073        2.663      219.331       93.278        0.181      349.834       30.551      856.972
08/20/2014  14:49:00     -213.863      -64.849       -7.730      145.862      129.924       66.515    21275.678    16880.152     4424.218        4.628        2.129      223.478       66.274        0.088      349.960       30.768      857.018
08/20/2014  14:50:00     -249.652       40.088       -7.382      174.601       88.009       59.927    30485.602     7745.638     3591.221        5.290        2.091      252.850       49.915        0.039      349.624       30.187      857.032
08/20/2014  14:51:00     -359.028      -34.455      -27.754      195.852      105.762       68.191    38357.954    11185.621     4650.068        9.252        2.710      360.678       80.942        0.050      349.618       30.176      857.003
08/20/2014  14:52:00     -616.409      -97.419      -30.600      158.777      154.278       87.557    25210.113    23801.669     7666.282       22.352        2.834      624.060       82.117        0.017      349.319       29.655      856.994
08/20/2014  14:53:00     -366.862     -100.057       -9.013      146.644       97.237       49.493    21504.518     9455.069     2449.597        8.904        1.670      380.262       56.577        0.022      349.303       29.629      856.988
08/20/2014  14:54:00     -260.511      -37.056       -3.634      131.871      114.074       64.880    17390.066    13012.795     4209.359        5.193        1.731      263.134       69.227        0.069      349.599       30.140      856.968
08/20/2014  14:55:00     -218.274     -153.161       -7.851      110.863      113.086       56.398    12290.528    12788.443     3180.759        4.971        1.413      266.650       58.062        0.047      349.498       29.967      856.947
08/20/2014  14:56:00     -266.400     -115.997       -3.447      156.421       98.723       57.999    24467.637     9746.191     3363.862        6.100        1.879      290.559       68.225        0.055      349.612       30.164      856.977
08/20/2014  14:57:00     -388.007      -71.598      -27.320      175.721      139.581       65.564    30877.778    19482.720     4298.625       10.553        2.733      394.558       65.465        0.028      349.461       29.904      856.995
08/20/2014  14:58:00     -315.584      105.798      -29.722      163.123       84.646       59.075    26609.149     7164.976     3489.834        7.446        1.863      332.846       63.642        0.037      349.446       29.875      856.955
08/20/2014  14:59:00     -194.074       47.860      -22.855      121.894      105.099       70.413    14858.047    11045.776     4957.968        3.566        1.543      199.888       51.503        0.066      349.449       29.881      856.899
08/20/2014  15:00:00     -252.836      -69.876      -24.839      168.171      130.181       79.366    28281.444    16947.171     6299.035        6.047        2.576      262.314       59.868        0.052      349.772       30.442      856.886
08/20/2014  15:01:00     -168.045     -188.925        0.574      232.728      162.548      102.523    54162.431    26421.798    10511.040        7.750        4.555      252.848      100.254        0.157      349.770       30.439      856.886
08/20/2014  15:02:00     -190.233      -78.973       14.778      169.015      143.292       72.024    28566.140    20532.585     5187.485        4.845        2.714      205.975       79.073        0.147      349.835       30.552      856.906
08/20/2014  15:03:00     -123.232      -67.831       17.973      156.440       96.264       45.377    24473.478     9266.822     2059.103        2.795        1.790      140.667       54.248        0.149      349.524       30.014      856.947
08/20/2014  15:04:00     -207.789     -117.182        9.779      190.336      166.754       95.126    36227.755    27806.763     9048.928        6.503        3.654      238.554      116.489        0.238      349.645       30.222      856.908
08/20/2014  15:05:00     -197.287     -108.833       17.915      213.332      146.593       89.193    45510.398    21489.588     7955.438        6.301        3.748      225.315      104.759        0.216      349.627       30.191      856.893
08/20/2014  15:06:00     -381.732      -80.866      -13.720      167.256      169.571       79.322    27974.475    28754.266     6291.972       10.772        3.151      390.204       90.313        0.054      349.651       30.233      856.924
08/20/2014  15:07:00     -422.872      -58.539      -16.991      139.292      146.332       71.028    19402.137    21413.033     5045.033       11.419        2.293      426.904       65.932        0.024      349.375       29.753      856.926
08/20/2014  15:08:00     -294.934      -54.569       -2.166      153.360      164.588       72.589    23519.198    27089.308     5269.201        7.291        2.794      299.939       66.272        0.049      349.638       30.210      856.920
08/20/2014  15:09:00     -176.337      -71.547        0.968      125.464       89.609       64.232    15741.328     8029.823     4125.690        3.205        1.395      190.299       55.809        0.086      349.860       30.596      856.909
08/20/2014  15:10:00     -217.492     -108.089        9.088      180.196      138.703       59.357    32470.593    19238.617     3523.299        5.714        2.762      242.870       66.712        0.075      349.682       30.286      856.909
08/20/2014  15:11:00     -195.301      -38.308       17.965      199.768      107.914       69.416    39907.292    11645.425     4818.536        4.814        2.819      199.023       85.624        0.185      349.661       30.250      856.881
08/20/2014  15:12:00     -287.895      -18.136       -2.120      165.398      135.118       66.964    27356.633    18256.971     4484.194        6.665        2.505      288.466       71.461        0.061      349.655       30.239      856.871
08/20/2014  15:13:00     -182.645       54.033       -1.094      130.452       98.580       53.536    17017.809     9718.015     2866.068        3.294        1.480      190.470       48.573        0.065      349.735       30.379      856.879
08/20/2014  15:14:00     -200.047      -69.977       -9.589      117.510      103.721       52.159    13808.522    10758.124     2720.563        3.614        1.364      211.933       58.264        0.076      349.708       30.332      856.857
08/20/2014  15:15:00     -372.491      -17.646      -29.725      141.747      101.040       62.422    20092.129    10209.094     3896.500        8.706        1.710      372.909       66.457        0.032      349.801       30.491      856.887
08/20/2014  15:16:00     -430.851       16.508      -31.355      183.201      187.853       88.338    33562.677    35288.587     7803.619       13.176        3.833      431.168       85.358        0.039      349.638       30.209      856.875
08/20/2014  15:17:00     -286.517     -125.872        1.080      180.399      140.696       80.649    32543.773    19795.427     6504.270        7.838        2.942      312.948       90.408        0.083      349.786       30.467      856.880
08/20/2014  15:18:00     -267.715     -233.653        2.967      190.268      212.422       95.830    36201.875    45122.986     9183.364       10.837        4.525      355.338      103.011        0.084      349.388       29.776      856.859
08/20/2014  15:19:00     -233.669     -175.928        3.527      155.316      146.170       72.506    24122.911    21365.782     5257.077        6.814        2.537      292.493       73.856        0.064      349.378       29.758      856.834
08/20/2014  15:20:00     -280.067      -75.523       -6.924      131.557      173.532       70.462    17307.185    30113.279     4964.938        6.828        2.619      290.071       65.547        0.051      349.590       30.125      856.875
08/20/2014  15:21:00     -516.497        8.121      -70.120      191.794      117.094       72.553    36785.130    13711.048     5263.925       16.374        2.788      516.561       86.429        0.028      349.316       29.651      856.879
08/20/2014  15:22:00     -363.167      -99.389       -3.027      180.698      132.795       83.730    32651.834    17634.401     7010.771        9.953        2.865      376.521       94.791        0.063      349.525       30.014      856.875
08/20/2014  15:23:00     -282.790      -47.536       -6.882       82.603       93.617       49.943     6823.316     8764.065     2494.257        5.018        0.904      286.757       39.472        0.019      349.460       29.899      856.856
08/20/2014  15:24:00     -402.095       -3.415       -5.218      164.387      183.648       85.801    27023.220    33726.443     7361.774       11.490        3.406      402.110       86.728        0.047      349.563       30.079      856.853
08/20/2014  15:25:00     -409.635      -79.135      -32.588      215.372      182.120       89.631    46385.306    33167.677     8033.718       13.134        4.379      417.209       96.221        0.053      349.422       29.833      856.843
08/20/2014  15:26:00     -476.874      -15.685      -37.079      250.691      134.135       84.618    62845.858    17992.274     7160.250       15.850        4.400      477.132      109.567        0.053      349.452       29.887      856.837
08/20/2014  15:27:00     -617.710     -163.889      -32.919      235.167      171.800       80.597    55303.536    29515.231     6495.942       25.039        4.566      639.081       74.728        0.014      349.318       29.655      856.824
08/20/2014  15:28:00     -148.549        9.162      -14.411      146.083      102.136       53.029    21340.109    10431.673     2812.083        2.846        1.729      148.831       58.763        0.156      349.665       30.257      856.825
08/20/2014  15:29:00     -246.677      -20.374      -12.167      161.596      116.245       83.225    26113.246    13512.845     6926.477        5.397        2.328      247.517       92.935        0.141      349.706       30.328      856.819
08/20/2014  15:30:00     -329.145       52.251      -50.312      128.045       94.142       45.438    16395.403     8862.654     2064.614        7.045        1.366      333.267       27.906        0.007      349.126       29.319      856.775
08/20/2014  15:31:00     -101.788      105.234       -9.843       53.519      104.477       47.953     2864.281    10915.538     2299.528        1.880        0.804      146.407       34.366        0.055      349.649       30.232      856.721
08/20/2014  15:32:00      -85.375      -24.393       10.182       87.294       95.120       65.628     7620.250     9047.829     4307.085        1.448        1.049       88.792       60.282        0.461      349.839       30.561      856.728
08/20/2014  15:33:00     -231.967        3.095      -18.207      143.457       99.322       52.683    20579.787     9864.852     2775.477        4.368        1.661      231.988       65.201        0.079      349.520       30.006      856.734
08/20/2014  15:34:00     -250.513       52.988      -44.091       89.179      121.762       48.587     7952.866    14825.942     2360.734        4.632        1.257      256.055       38.906        0.023      349.442       29.869      856.729
08/20/2014  15:35:00     -275.267     -146.163       -5.275      163.575      119.983       61.802    26756.838    14396.026     3819.455        7.106        2.249      311.666       73.702        0.056      349.842       30.565      856.706
08/20/2014  15:36:00     -213.284     -147.492        8.931      181.276      131.534       78.060    32860.924    17301.162     6093.389        6.178        2.813      259.314      102.394        0.156      349.942       30.738      856.721
08/20/2014  15:37:00     -443.810      -29.228      -30.277      238.898      202.783      104.542    57072.414    41120.746    10928.939       15.391        5.456      444.771      103.861        0.055      349.619       30.176      856.716
08/20/2014  15:38:00     -316.757      -91.902      -14.402      218.016      187.051       70.495    47530.934    34988.068     4969.527        9.822        4.374      329.819       95.036        0.083      349.573       30.097      856.662
08/20/2014  15:39:00     -289.337      -43.519      -19.345      139.138      108.099       66.175    19359.366    11685.336     4379.136        6.070        1.771      292.591       73.149        0.063      349.674       30.273      856.639
08/20/2014  15:40:00     -449.109      -39.627       -4.919      162.470      162.094       73.673    26396.519    26274.533     5427.689       13.068        2.905      450.854       76.514        0.029      349.622       30.181      856.638
08/20/2014  15:41:00     -536.941     -142.306      -25.613      243.333      137.233       86.263    59210.937    18833.015     7441.326       19.733        4.274      555.478      103.028        0.034      349.663       30.252      856.641
08/20/2014  15:42:00     -305.723     -193.014       -0.668      267.916      166.846       99.280    71779.038    27837.645     9856.516       12.008        5.474      361.553      123.407        0.117      349.742       30.391      856.647
08/20/2014  15:43:00     -248.842     -206.087       21.981      172.351      168.713       84.393    29704.753    28464.043     7122.211        8.507        3.265      323.101       95.880        0.088      349.608       30.158      856.711
08/20/2014  15:44:00     -358.696     -139.934       -9.996      150.482      156.549       77.566    22644.943    24507.698     6016.447       10.075        2.658      385.025       75.045        0.038      349.521       30.007      856.675
08/20/2014  15:45:00     -415.440     -233.654      -19.799      187.167      129.306       78.787    35031.413    16720.148     6207.386       14.276        2.898      476.639       86.771        0.033      349.343       29.698      856.651
08/20/2014  15:46:00     -321.206     -101.864       -7.557      144.510      118.880       62.094    20883.206    14132.537     3855.696        7.623        1.944      336.971       64.468        0.037      349.486       29.945      856.646
08/20/2014  15:47:00     -581.572     -137.715       -3.629      285.136      182.744       89.991    81302.278    33395.320     8098.462       23.998        6.140      597.655      108.530        0.033      349.509       29.985      856.620
08/20/2014  15:48:00     -336.101     -238.790        0.614      194.233      154.147       88.692    37726.339    23761.221     7866.195       11.966        3.468      412.292      101.920        0.061      349.428       29.844      856.650
08/20/2014  15:49:00     -375.645     -309.838        4.600      210.792      181.413       94.411    44433.084    32910.767     8913.348       16.168        4.313      486.938      104.046        0.046      349.430       29.849      856.635
08/20/2014  15:50:00     -360.236     -257.741      -21.769      210.689      126.278       72.871    44389.677    15946.088     5310.131       13.115        3.282      442.945       68.193        0.024      349.193       29.437      856.659
08/20/2014  15:51:00     -237.836     -137.805        1.911      148.234      138.315       66.499    21973.242    19131.043     4422.176        6.053        2.276      274.875       70.950        0.067      349.475       29.927      856.654
08/20/2014  15:52:00     -317.139      -18.370      -12.846      197.955      177.178       78.974    39186.153    31392.142     6236.857        8.893        3.841      317.671       86.189        0.074      349.737       30.381      856.679
08/20/2014  15:53:00     -514.018      -49.254      -30.087      266.987      189.890       90.963    71282.147    36058.039     8274.233       19.156        5.781      516.372      113.474        0.048      349.419       29.830      856.688
08/20/2014  15:54:00     -479.422     -128.704      -21.894      192.649      186.886       83.534    37113.453    34926.267     6977.893       16.294        3.951      496.397       99.903        0.041      349.344       29.700      856.694
08/20/2014  15:55:00     -347.758     -101.838       -7.441      217.094      142.455       80.971    47130.018    20293.537     6556.281       10.266        3.699      362.363       98.527        0.074      349.375       29.754      856.716
08/20/2014  15:56:00     -163.760      -16.682       10.372      103.136       80.575       58.152    10637.055     6492.326     3381.614        2.385        1.026      164.607       45.941        0.078      349.507       29.984      856.680
08/20/2014  15:57:00     -402.921     -301.149      -10.661      245.371      224.405      106.753    60206.885    50357.461    11396.204       18.753        6.098      503.027      111.888        0.049      349.446       29.876      856.650
08/20/2014  15:58:00     -275.151     -202.011        8.090      215.553      171.413       91.321    46462.947    29382.495     8339.484       10.037        4.209      341.345      108.142        0.100      349.659       30.246      856.680
08/20/2014  15:59:00     -456.864     -289.145      -11.597      253.873      181.889      106.646    64451.571    33083.719    11373.421       20.066        5.445      540.675      112.507        0.043      349.438       29.862      856.702
08/20/2014  16:00:00     -366.557     -345.185      -11.247      240.488      187.759      114.718    57834.492    35253.307    13160.322       17.992        5.312      503.505      131.700        0.068      349.241       29.520      856.711
08/20/2014  16:01:00     -518.554     -141.881      -39.703      217.948      134.143       85.458    47501.415    17994.289     7303.078       18.169        3.640      537.614       94.463        0.031      349.236       29.513      856.709
08/20/2014  16:02:00     -380.133      -89.973      -13.208      235.723      154.671       94.324    55565.437    23923.139     8897.061       12.056        4.419      390.636      117.224        0.090      349.405       29.805      856.625
08/20/2014  16:03:00     -254.209     -180.797        7.827      162.912      156.344       83.512    26540.433    24443.588     6974.247        7.765        2.898      311.945       92.149        0.087      349.551       30.059      856.624
08/20/2014  16:04:00     -290.736      -61.348       -9.486      170.184      112.031       67.947    28962.509    12550.895     4616.808        6.725        2.307      297.138       75.213        0.064      349.670       30.265      856.635
08/20/2014  16:05:00     -295.118     -201.859      -10.789      192.071      174.778       95.289    36891.451    30547.412     9080.022       10.222        3.826      357.550      112.436        0.099      349.688       30.296      856.630
08/20/2014  16:06:00     -287.419      -67.234       13.833      173.835      152.798       98.054    30218.761    23347.150     9614.508        7.524        3.159      295.178      102.091        0.120      349.830       30.544      856.645
08/20/2014  16:07:00     -473.064     -331.928       -4.394      283.218      171.889      103.555    80212.277    29545.771    10723.547       22.721        6.024      577.898      106.954        0.034      349.265       29.563      856.623
08/20/2014  16:08:00     -367.983     -241.492      -18.232      174.921      149.256       95.439    30597.337    22277.246     9108.651       12.801        3.099      440.148       86.368        0.039      349.406       29.807      856.647
08/20/2014  16:09:00     -429.267     -338.792        3.195      261.518      194.809      104.816    68391.761    37950.741    10986.318       20.817        5.866      546.855      132.621        0.059      349.350       29.710      856.678
08/20/2014  16:10:00     -169.608     -155.209       10.592      168.597      146.231       89.941    28425.072    21383.540     8089.438        5.542        2.895      229.906       94.174        0.168      349.440       29.869      856.674
08/20/2014  16:11:00     -336.455     -188.938        0.221      146.103      123.534       76.110    21346.134    15260.544     5792.768        9.564        2.120      385.875       81.677        0.045      349.237       29.514      856.647
08/20/2014  16:12:00     -376.114     -104.853      -23.281      169.114      143.609       71.646    28599.386    20623.410     5133.167       10.367        2.718      390.456       75.620        0.038      349.322       29.662      856.656
08/20/2014  16:13:00     -238.449     -143.370       -3.108      144.873       85.365       62.176    20988.141     7287.150     3865.848        5.478        1.607      278.231       69.992        0.063      349.453       29.888      856.658
08/20/2014  16:14:00     -340.770     -281.251       12.765      229.171      199.601      111.220    52519.451    39840.738    12369.991       15.004        5.237      441.844      120.173        0.074      349.315       29.650      856.641
08/20/2014  16:15:00     -374.419     -220.178       -4.106      255.982      233.659      101.855    65526.771    54596.338    10374.533       15.957        6.525      434.360      105.014        0.058      349.516       29.997      856.638
08/20/2014  16:16:00     -539.274      -48.357      -58.953      199.888      258.873       80.440    39955.275    67015.352     6470.642       20.501        5.672      541.438       84.906        0.025      349.344       29.698      856.615
08/20/2014  16:17:00     -650.512     -195.931      -31.568      418.976      202.542      117.707   175541.221    41023.125    13854.824       34.644       11.521      679.378      171.542        0.064      349.466       29.911      856.479
08/20/2014  16:18:00     -639.188      -85.541      -26.720      280.463      228.836      116.285    78659.335    52365.928    13522.135       28.054        7.227      644.887      106.219        0.027      349.373       29.749      856.610
08/20/2014  16:19:00     -328.398      -87.142       -4.284      207.279      149.983       89.289    42964.479    22494.790     7972.440        9.443        3.672      339.763      101.565        0.089      349.466       29.911      856.682
08/20/2014  16:20:00     -362.204     -391.007      -16.693      265.492      235.623      121.640    70485.751    55518.248    14796.369       21.255        7.040      532.990      140.350        0.069      349.287       29.601      856.676
08/20/2014  16:21:00     -440.341     -291.891       -4.798      298.583      225.827      119.099    89151.925    50997.610    14184.588       21.670        7.717      528.300      155.802        0.087      349.262       29.558      856.636
08/20/2014  16:22:00     -514.647     -269.439       -5.608      300.083      270.863      102.640    90049.770    73366.956    10535.059       25.569        8.698      580.912      122.841        0.045      349.181       29.416      856.674
08/20/2014  16:23:00     -399.160     -184.419      -20.925      194.952      151.841       73.621    38006.430    23055.622     5420.069       13.012        3.324      439.704       66.508        0.023      349.328       29.673      856.698
08/20/2014  16:24:00     -233.308     -115.985       -2.533      167.073      108.192       82.993    27913.507    11705.501     6887.768        5.719        2.325      260.548       85.084        0.107      349.529       30.020      856.733
08/20/2014  16:25:00     -363.328     -106.217      -28.709      200.216      124.243       92.379    40086.526    15436.292     8533.880       10.407        3.203      378.535      103.155        0.074      349.430       29.849      856.723
08/20/2014  16:26:00     -302.437      -62.257        6.169      153.085      144.019       78.540    23435.058    20741.471     6168.458        7.285        2.517      308.779       66.556        0.046      349.514       29.993      856.717
08/20/2014  16:27:00     -445.560      -64.968      -41.959      317.239      147.961       82.354   100640.709    21892.388     6782.113       16.688        6.466      450.271      129.895        0.083      349.342       29.698      856.706
08/20/2014  16:28:00     -376.910     -108.102      -19.496      161.860      121.191       76.779    26198.505    14687.340     5895.045       10.044        2.339      392.106       68.524        0.031      349.350       29.708      856.702
08/20/2014  16:29:00     -427.653      -52.563      -13.677      246.296      166.227       93.929    60661.767    27631.318     8822.716       14.146        4.856      430.871      106.205        0.061      349.415       29.824      856.666
08/20/2014  16:30:00     -434.888      -99.551      -10.441      172.183      163.722       73.195    29647.114    26804.979     5357.535       13.047        3.090      446.137       73.506        0.027      349.502       29.973      856.693
08/20/2014  16:31:00     -274.536      -64.750        9.590      214.221      154.392      103.218    45890.754    23836.833    10653.955        8.000        4.019      282.068      110.173        0.153      349.626       30.189      856.686
08/20/2014  16:32:00     -257.357     -123.585        9.889      196.360      141.147       78.286    38557.321    19922.610     6128.721        7.309        3.230      285.492       74.709        0.068      349.638       30.210      856.739
08/20/2014  16:33:00     -284.794     -166.592      -11.076      199.636      130.255       75.691    39854.672    16966.236     5729.053        8.575        3.127      329.940       93.464        0.080      349.574       30.100      856.746
08/20/2014  16:34:00     -238.330     -164.658        3.499      174.362      124.838       81.783    30401.976    15584.434     6688.523        6.829        2.634      289.678       87.659        0.092      349.534       30.029      856.728
08/20/2014  16:35:00     -315.693     -165.369       -8.821      193.572      126.631       73.424    37470.135    16035.503     5391.075        9.298        2.945      356.384       93.742        0.069      349.437       29.861      856.711
08/20/2014  16:36:00     -376.833     -198.586       -1.561      234.143      161.646       97.709    54822.777    26129.312     9547.093       13.595        4.525      425.957       98.767        0.054      349.438       29.863      856.689
08/20/2014  16:37:00     -235.424     -129.738        4.329      157.558      116.606       79.099    24824.467    13596.995     6256.712        5.847        2.234      268.806       80.098        0.089      349.468       29.914      856.732
08/20/2014  16:38:00     -305.319     -208.684       -9.733      191.154      159.383       85.301    36539.839    25402.837     7276.318       10.303        3.461      369.822       85.235        0.053      349.281       29.592      856.692
08/20/2014  16:39:00     -324.691     -188.756        6.627      244.323      174.550      108.192    59693.839    30467.858    11705.567       12.146        5.093      375.570      122.938        0.107      349.342       29.696      856.665
08/20/2014  16:40:00     -384.162     -230.955       -4.147      205.013      159.012       99.294    42030.138    25284.957     9859.365       13.904        3.859      448.242       99.286        0.049      349.418       29.829      856.703
08/20/2014  16:41:00     -473.969     -291.490       -4.906      223.262      190.948       97.790    49845.736    36461.103     9562.935       20.273        4.793      556.429       85.285        0.023      349.140       29.345      856.693
08/20/2014  16:42:00     -471.374     -248.988      -12.847      266.610      189.767       99.438    71080.950    36011.574     9887.877       20.064        5.849      533.093      110.712        0.043      349.074       29.231      856.688
08/20/2014  16:43:00     -418.124     -284.441       -4.938      231.763      210.133       90.711    53713.928    44155.858     8228.502       18.091        5.305      505.702       92.023        0.033      349.123       29.316      856.706
08/20/2014  16:44:00     -346.025     -255.080        1.904      211.608      189.487       95.226    44778.071    35905.181     9067.943       13.726        4.488      429.882      101.276        0.056      349.179       29.413      856.690
08/20/2014  16:45:00     -487.497     -248.380      -13.467      275.537      225.758      118.863    75920.853    50966.652    14128.461       22.024        7.051      547.125      147.131        0.072      349.068       29.222      856.725
08/20/2014  16:46:00     -465.416     -260.642       -6.587      211.793      234.160      107.853    44856.377    54831.134    11632.326       19.793        5.566      533.429      115.296        0.047      349.097       29.269      856.714
08/20/2014  16:47:00     -403.122     -132.470       -1.358      208.053      197.090      107.357    43286.127    38844.476    11525.544       13.684        4.683      424.329      110.032        0.067      349.121       29.312      856.721
08/20/2014  16:48:00     -371.173     -240.697        0.560      231.110      183.890      107.955    53411.994    33815.520    11654.241       14.727        4.944      442.386      105.199        0.057      348.998       29.100      856.697
08/20/2014  16:49:00     -487.713     -256.003       -0.455      230.681      206.391      112.404    53213.925    42597.272    12634.620       20.590        5.422      550.819      121.804        0.049      348.964       29.042      856.729
08/20/2014  16:50:00     -609.083     -417.174        1.817      275.985      203.064      134.997    76167.906    41234.838    18224.213       34.030        6.781      738.252      151.206        0.042      348.799       28.755      856.671
08/20/2014  16:51:00     -474.661     -219.463        4.097      237.360      177.646      102.557    56339.678    31558.076    10517.842       18.593        4.921      522.941      118.650        0.051      348.925       28.974      856.724
08/20/2014  16:52:00     -399.309     -274.469        5.644      269.556      240.655      111.227    72660.695    57914.918    12371.445       18.885        7.147      484.542      132.674        0.075      348.928       28.978      856.720
08/20/2014  16:53:00     -421.644     -290.450      -15.427      193.207      206.835      101.900    37329.067    42780.836    10383.598       17.642        4.525      512.001      102.162        0.040      348.818       28.787      856.713
08/20/2014  16:54:00     -362.129     -231.840      -14.484      194.351      180.997       93.413    37772.377    32759.761     8725.913       13.216        3.963      429.985       90.888        0.045      349.010       29.120      856.686
08/20/2014  16:55:00     -358.539     -222.234       10.277      228.453      164.772       92.840    52190.707    27149.744     8619.240       13.298        4.398      421.827      103.389        0.060      349.110       29.293      856.717
08/20/2014  16:56:00     -460.552     -188.887       -5.054      295.384      205.963      105.742    87251.650    42420.879    11181.293       19.430        7.043      497.781      124.491        0.063      348.945       29.008      856.732
08/20/2014  16:57:00     -352.904     -237.560       -1.993      247.802      168.657      101.776    61406.034    28445.258    10358.422       14.057        5.010      425.412      108.574        0.065      349.048       29.186      856.720
08/20/2014  16:58:00     -434.152      -42.035      -11.555      231.613      177.707       91.904    53644.655    31579.924     8446.279       14.201        4.684      436.182      108.505        0.062      349.121       29.313      856.709
08/20/2014  16:59:00     -463.994     -237.139       13.530      295.166      249.617      129.255    87122.680    62308.461    16706.971       21.889        8.307      521.081      162.545        0.097      348.991       29.088      856.736
08/20/2014  17:00:00     -369.766     -317.988       -0.988      236.484      221.608      120.864    55924.710    49109.901    14608.114       17.872        5.982      487.692      133.091        0.074      349.033       29.160      856.729
08/20/2014  17:01:00     -366.490     -183.772      -13.958      291.911      199.016       99.622    85212.010    39607.354     9924.558       15.149        6.737      409.984      143.705        0.123      349.083       29.248      856.745
08/20/2014  17:02:00     -287.343     -170.832       -2.094      209.058      127.414       77.474    43705.432    16234.427     6002.163        8.884        3.297      334.290       89.965        0.072      349.161       29.383      856.743
08/20/2014  17:03:00     -355.603      -77.658       -8.237      202.126      147.738       85.068    40854.762    21826.552     7236.597       10.122        3.496      363.984       95.920        0.069      349.155       29.372      856.734
08/20/2014  17:04:00     -489.407     -198.123      -37.348      217.174      179.194      101.248    47164.450    32110.364    10251.128       18.483        4.476      527.988      116.094        0.048      349.052       29.195      856.727
08/20/2014  17:05:00     -404.414     -123.554        0.899      223.117      163.451       92.084    49781.043    26716.080     8479.454       13.188        4.249      422.867       95.813        0.051      349.221       29.486      856.759
08/20/2014  17:06:00     -263.001     -181.279       15.895      282.245      185.401      106.838    79662.465    34373.691    11414.253       11.384        6.273      319.424      126.905        0.158      349.024       29.146      856.739
08/20/2014  17:07:00     -344.813     -282.174      -20.281      201.697      146.405       98.447    40681.708    21434.302     9691.881       13.535        3.590      445.554       96.562        0.047      348.979       29.066      856.726
08/20/2014  17:08:00     -645.886     -375.818      -14.390      243.709      223.756      128.554    59394.030    50066.960    16526.072       34.228        6.299      747.267      129.078        0.030      348.834       28.815      856.728
08/20/2014  17:09:00     -392.226      -95.398        4.927      263.068      161.122       92.595    69204.978    25960.419     8573.774       13.333        5.187      403.660      104.307        0.067      349.012       29.125      856.756
08/20/2014  17:10:00     -339.026     -105.601       -4.801      206.521      208.683       84.069    42651.050    43548.757     7067.595       10.967        4.663      355.092       94.538        0.071      349.108       29.290      856.785
08/20/2014  17:11:00     -447.861     -254.189       -4.935      273.629      217.053      107.373    74873.095    47112.051    11529.055       19.934        6.676      514.967      127.682        0.061      348.964       29.041      856.766
08/20/2014  17:12:00     -361.027     -249.430      -14.097      229.234      166.762       90.719    52548.117    27809.550     8229.895       14.065        4.429      438.812      115.079        0.069      348.932       28.985      856.779
08/20/2014  17:13:00     -452.060     -187.803       -2.176      231.807      180.262       93.482    53734.510    32494.445     8738.864       16.728        4.748      489.518      101.351        0.043      348.938       28.996      856.772
08/20/2014  17:14:00     -281.723     -156.051       24.410      191.724      188.707      105.710    36758.135    35610.226    11174.649        9.391        4.177      322.056      105.773        0.108      349.083       29.248      856.786
08/20/2014  17:15:00     -386.071     -370.954       -4.864      244.434      212.779      124.315    59748.051    45275.095    15454.322       20.356        6.024      535.405      138.527        0.067      348.902       28.932      856.794
08/20/2014  17:16:00     -610.127     -355.159      -24.845      271.701      194.947      125.831    73821.163    38004.267    15833.406       31.331        6.383      705.969      136.208        0.037      348.779       28.722      856.811
08/20/2014  17:17:00     -686.322     -318.221      -10.600      304.463      222.190      121.567    92697.776    49368.540    14778.587       36.460        7.842      756.506      145.499        0.037      348.707       28.596      856.805
08/20/2014  17:18:00     -666.180     -293.210      -39.755      225.204      200.728      107.254    50716.852    40291.789    11503.461       31.691        5.126      727.852      100.749        0.019      348.698       28.580      856.793
08/20/2014  17:19:00     -358.455     -258.988        4.480      274.913      200.083      110.751    75577.176    40033.114    12265.878       16.171        6.394      442.227      121.737        0.076      348.808       28.771      856.823
08/20/2014  17:20:00     -433.614     -339.309       -2.211      261.853      205.054      130.062    68567.236    42047.009    16916.247       21.532        6.377      550.592      161.128        0.086      348.789       28.737      856.801
08/20/2014  17:21:00     -550.547     -244.406      -25.199      277.361      216.674      116.878    76928.984    46947.423    13660.415       25.048        6.877      602.359      124.348        0.043      348.732       28.639      856.820
08/20/2014  17:22:00     -457.873     -229.994       -7.629      243.045      189.253      104.505    59070.899    35816.642    10921.351       18.418        5.290      512.392      109.387        0.046      348.795       28.749      856.825
08/20/2014  17:23:00     -305.296     -237.435       11.735      246.399      204.818      105.339    60712.506    41950.308    11096.295       13.172        5.688      386.757      125.901        0.106      348.865       28.870      856.827
08/20/2014  17:24:00     -444.843     -220.721        3.619      312.873      243.722      137.189    97889.643    59400.320    18820.744       21.133        8.806      496.592      154.257        0.096      348.785       28.730      856.811
08/20/2014  17:25:00     -450.120     -286.483      -19.674      266.613      216.137      111.520    71082.326    46714.989    12436.670       20.763        6.512      533.555      125.355        0.055      348.762       28.692      856.822
08/20/2014  17:26:00     -454.345     -271.697        0.173      243.645      193.649       97.500    59362.975    37499.790     9506.203       19.329        5.318      529.386      110.348        0.043      348.799       28.754      856.814
08/20/2014  17:27:00     -441.757     -249.133      -14.094      227.410      166.061       96.260    51715.291    27576.357     9266.020       17.297        4.428      507.165       94.289        0.035      348.775       28.714      856.839
08/20/2014  17:28:00     -382.848     -160.665       -7.691      196.891      145.746       92.770    38766.007    21241.852     8606.320       12.052        3.431      415.194       98.640        0.056      348.909       28.947      856.841
08/20/2014  17:29:00     -427.058     -238.601       -3.155      282.412      234.212       91.487    79756.517    54855.091     8369.944       19.112        7.149      489.192      117.467        0.058      348.837       28.823      856.837
08/20/2014  17:30:00     -463.727     -170.572      -22.679      213.334      195.804       95.427    45511.372    38339.146     9106.272       16.879        4.648      494.103       95.074        0.037      348.741       28.655      856.842
08/20/2014  17:31:00     -506.797     -220.085      -22.953      238.959      218.571       97.002    57101.295    47773.264     9409.302       21.002        5.714      552.522      114.550        0.043      348.765       28.695      856.843
08/20/2014  17:32:00     -466.223     -219.241      -25.238      184.064      211.565       98.487    33879.677    44759.824     9699.681       17.719        4.417      515.199       91.842        0.032      348.774       28.711      856.815
08/20/2014  17:33:00     -463.268     -262.587        2.746      331.358      226.478      131.888   109797.885    51292.219    17394.485       23.100        8.924      532.513      163.372        0.094      348.760       28.688      856.803
08/20/2014  17:34:00     -332.985      -63.066        5.757      202.915      135.202       76.604    41174.347    18279.693     5868.143        9.009        3.266      338.904       86.758        0.066      348.926       28.974      856.829
08/20/2014  17:35:00     -438.284     -226.167      -10.240      227.320      178.825       94.094    51674.264    31978.486     8853.691       16.791        4.625      493.198      103.744        0.044      348.829       28.807      856.838
08/20/2014  17:36:00     -457.045     -193.659        2.328      209.368      150.289       93.340    43835.107    22586.678     8712.283       16.075        3.757      496.381      109.565        0.049      348.900       28.929      856.848
08/20/2014  17:37:00     -348.275      -96.961       10.360      205.182      167.489       79.430    42099.761    28052.510     6309.189       10.362        3.823      361.520       90.630        0.063      348.971       29.054      856.904
08/20/2014  17:38:00     -411.953     -108.665      -16.453      167.464      200.205       79.930    28044.112    40081.927     6388.782       12.813        3.726      426.044       72.557        0.029      348.911       28.948      856.925
08/20/2014  17:39:00     -347.053     -201.707      -13.570      208.742      120.153       76.918    43573.383    14436.694     5916.372       11.261        3.196      401.412       90.528        0.051      348.832       28.813      856.924
08/20/2014  17:40:00     -286.985     -180.293       13.686      226.195      195.554      105.045    51164.032    38241.227    11034.410       10.773        5.022      338.918      120.135        0.126      348.904       28.937      856.912
08/20/2014  17:41:00     -288.087     -118.315       -0.030      199.447      167.840       87.197    39779.265    28170.241     7603.296        8.626        3.778      311.436       98.321        0.100      348.911       28.950      856.947
08/20/2014  17:42:00     -366.709     -159.086      -20.503      212.846      191.598       88.793    45303.528    36709.959     7884.257       12.503        4.495      399.729       98.317        0.060      348.929       28.981      856.958
08/20/2014  17:43:00     -435.369     -152.786      -15.023      233.157      189.574      112.980    54362.017    35938.474    12764.381       15.807        5.153      461.400      101.337        0.048      348.722       28.623      856.916
08/20/2014  17:44:00     -276.420     -103.861      -22.032      172.727      140.061       78.792    29834.453    19617.118     6208.199        7.166        2.783      295.288       96.812        0.107      348.872       28.883      856.932
08/20/2014  17:45:00     -146.827      -45.913        7.388      146.330      102.018       66.563    21412.408    10407.625     4430.681        2.998        1.813      153.838       73.390        0.228      349.017       29.135      856.951
08/20/2014  17:46:00     -291.654     -149.453        4.925      203.594      139.680       99.418    41450.495    19510.459     9883.919        8.912        3.542      327.717      106.627        0.106      348.899       28.929      856.951
08/20/2014  17:47:00     -248.870      -24.096      -17.619      136.656      109.849       68.525    18674.936    12066.862     4695.686        4.913        1.772      250.034       54.286        0.047      348.969       29.052      856.957
08/20/2014  17:48:00     -540.383      -69.322      -32.973      276.420      178.633       89.490    76408.042    31909.773     8008.495       20.709        5.816      544.811       92.580        0.029      348.815       28.784      856.948
08/20/2014  17:49:00     -321.769      -63.123      -14.330      220.481      130.228       94.590    48612.042    16959.211     8947.270        9.111        3.726      327.902      110.208        0.113      348.834       28.817      856.941
08/20/2014  17:50:00     -211.016     -139.445       -5.953      217.328      160.278       94.009    47231.467    25689.135     8837.699        7.287        4.088      252.928       97.274        0.148      348.790       28.741      856.947
08/20/2014  17:51:00     -181.688      -99.976        4.318      240.709      178.101      114.284    57940.776    31719.896    13060.787        7.285        5.136      207.378      129.774        0.392      348.677       28.546      856.962
08/20/2014  17:52:00     -337.144      -87.608      -27.177      230.697      204.116       78.511    53221.293    41663.201     6164.053       11.154        5.052      348.340       50.909        0.021      348.715       28.610      856.969
08/20/2014  17:53:00     -285.068      -57.878        8.845      190.457      155.143       87.396    36273.774    24069.268     7638.071        7.632        3.399      290.884       97.892        0.113      348.869       28.876      856.986
08/20/2014  17:54:00     -409.070     -109.858      -20.412      205.875      232.062      102.076    42384.567    53852.924    10419.570       14.322        5.333      423.565       93.841        0.049      348.721       28.620      856.966
08/20/2014  17:55:00     -478.736      -91.554       -4.211      304.706      193.154      107.080    92845.974    37308.294    11466.134       18.958        7.081      487.412      130.291        0.071      348.704       28.591      856.959
08/20/2014  17:56:00     -426.405     -172.789       -6.333      237.808      158.671      101.364    56552.739    25176.466    10274.702       15.184        4.600      460.084      116.575        0.064      348.604       28.417      856.949
08/20/2014  17:57:00     -503.202      -23.097      -28.316      207.228      161.597      103.367    42943.610    26113.739    10684.722       16.713        3.987      503.732      112.450        0.050      348.599       28.410      856.951
08/20/2014  17:58:00     -510.229     -117.590      -20.999      259.591      191.629      114.190    67387.520    36721.588    13039.434       19.585        5.857      523.604      129.526        0.061      348.565       28.350      856.958
08/20/2014  17:59:00     -406.506      -91.361      -18.868      223.109      151.084       97.322    49777.611    22826.428     9471.512       12.800        4.104      416.646      109.146        0.069      348.627       28.458      856.963
08/20/2014  18:00:00     -290.736     -180.541       11.945      209.184      152.055       95.477    43758.022    23120.574     9115.813        9.661        3.800      342.231      108.154        0.100      348.652       28.501      856.987
08/20/2014  18:01:00     -387.741     -282.503       -7.441      232.029      213.346      115.509    53837.518    45516.546    13342.285       17.143        5.635      479.741      129.327        0.073      348.572       28.362      856.973
08/20/2014  18:02:00     -265.155      -86.072      -14.284      229.866      178.561       81.806    52838.563    31884.006     6692.239        8.465        4.571      278.775       86.349        0.096      348.728       28.632      856.994
08/20/2014  18:03:00     -421.206      -91.658      -13.867      247.235      164.905       92.930    61125.258    27193.601     8636.007       14.146        4.848      431.064      116.652        0.073      348.622       28.448      857.004
08/20/2014  18:04:00     -636.006     -179.678      -24.231      313.488      192.639      115.453    98274.839    37109.949    13329.446       29.301        7.436      660.899      133.923        0.041      348.439       28.132      856.957
08/20/2014  18:05:00     -330.694      -25.243        0.791      235.772      128.670       96.909    55588.370    16555.971     9391.373        9.575        4.077      331.656      125.419        0.143      348.530       28.289      856.974
08/20/2014  18:06:00     -501.326      -26.973      -31.731      218.838      170.192       93.794    47890.122    28965.291     8797.355       16.934        4.283      502.051      108.874        0.047      348.510       28.254      856.977
08/20/2014  18:07:00     -518.043     -160.355       -5.976      251.322      221.192      101.187    63162.585    48926.107    10238.838       20.820        6.116      542.293      121.442        0.050      348.461       28.170      856.958
08/20/2014  18:08:00     -499.663      -72.453      -25.485      207.598      196.761       94.466    43097.011    38714.816     8923.825       17.313        4.537      504.889       96.149        0.036      348.519       28.270      856.952
08/20/2014  18:09:00     -393.182     -106.532       -6.591      185.617      183.763       72.432    34453.504    33768.863     5246.346       11.971        3.673      407.359       78.879        0.037      348.571       28.361      856.987
08/20/2014  18:10:00     -260.277     -157.338        0.986      190.397      160.958       92.288    36250.833    25907.346     8517.086        8.157        3.534      304.137       91.856        0.091      348.564       28.349      856.999
08/20/2014  18:11:00     -479.486      -36.773      -25.952      215.900      174.796       91.419    46613.024    30553.596     8357.449       15.871        4.276      480.894      103.712        0.047      348.562       28.344      857.006
08/20/2014  18:12:00     -343.925      -94.181       -1.289      207.236      141.460       99.936    42946.836    20010.995     9987.142       10.004        3.647      356.587      113.393        0.101      348.627       28.456      857.017
08/20/2014  18:13:00     -476.191     -200.162      -25.449      177.150      161.455       85.826    31382.201    26067.661     7366.037       16.613        3.241      516.548       87.657        0.029      348.549       28.322      857.020
08/20/2014  18:14:00     -290.476     -194.301        0.088      215.305      151.848       84.660    46356.033    23057.846     7167.303        9.934        3.829      349.470      104.084        0.089      348.521       28.274      857.031
08/20/2014  18:15:00     -169.985      -65.684       17.746      148.758      146.598       78.302    22128.796    21490.956     6131.167        4.163        2.488      182.235       74.767        0.168      348.634       28.471      857.053
08/20/2014  18:16:00     -380.745     -116.690      -11.912      229.632      192.930       84.263    52730.910    37221.805     7100.216       12.787        4.853      398.225      100.690        0.064      348.516       28.265      857.042
08/20/2014  18:17:00     -317.801      -64.477       -7.349      165.303      118.646       68.851    27324.982    14076.886     4740.394        7.567        2.307      324.275       74.478        0.053      348.487       28.216      857.066
08/20/2014  18:18:00     -244.339      -65.736       17.708      181.363      155.423       82.395    32892.686    24156.390     6788.880        6.407        3.192      253.027       88.879        0.123      348.521       28.275      857.064
08/20/2014  18:19:00     -503.074     -182.776      -15.384      267.212      211.985      103.461    71402.097    44937.719    10704.160       20.686        6.352      535.248      114.183        0.046      348.373       28.017      857.056
08/20/2014  18:20:00     -620.500     -110.077      -25.650      269.322      199.784      103.573    72534.367    39913.764    10727.272       26.046        6.159      630.188      124.532        0.039      348.307       27.903      857.021
08/20/2014  18:21:00     -390.234      -26.264      -24.382      198.579      136.332       90.966    39433.745    18586.463     8274.792       10.992        3.315      391.117      104.216        0.071      348.358       27.989      857.026
08/20/2014  18:22:00     -228.557     -167.401       14.200      202.023      175.718      105.148    40813.128    30876.963    11056.026        8.159        4.137      283.305      115.060        0.165      348.376       28.024      857.058
08/20/2014  18:23:00     -194.716     -117.232       15.799      252.887      150.507       78.864    63951.941    22652.257     6219.597        7.235        4.641      227.283      104.348        0.211      348.398       28.064      857.058
08/20/2014  18:24:00     -358.626      -41.627      -10.696      201.497      151.856       79.864    40601.169    23060.365     6378.206       10.024        3.502      361.034       95.186        0.070      348.414       28.090      857.046
08/20/2014  18:25:00     -165.668      -66.795        6.182      126.020      120.279       60.116    15881.112    14466.964     3613.940        3.295        1.698      178.626       57.046        0.102      348.494       28.228      857.061
08/20/2014  18:26:00     -241.623      -70.548        2.142      126.485      122.308       77.794    15998.397    14959.337     6051.878        5.018        1.850      251.711       67.504        0.072      348.494       28.228      857.033
08/20/2014  18:27:00     -379.208      -93.022      -30.095      175.372      124.700       73.240    30755.452    15550.093     5364.071       10.250        2.583      390.451       87.986        0.051      348.414       28.088      857.032
08/20/2014  18:28:00     -217.088      -77.031       -1.275      154.726      114.586       68.706    23940.287    13129.944     4720.564        4.742        2.090      230.350       81.517        0.125      348.526       28.283      857.042
08/20/2014  18:29:00     -267.838     -157.057       -7.283      189.163      134.551       83.822    35782.555    18103.889     7026.150        7.867        3.046      310.490       91.776        0.087      348.379       28.028      857.049
08/20/2014  18:30:00     -328.384     -175.574       -5.580      170.098      147.830       77.616    28933.431    21853.631     6024.299        9.774        2.841      372.374       62.609        0.028      348.385       28.040      857.041
08/20/2014  18:31:00     -224.344      -86.822       16.249      210.600      138.612       76.375    44352.200    19213.297     5833.205        6.375        3.470      240.558       92.754        0.149      348.383       28.037      857.018
08/20/2014  18:32:00     -199.413     -115.978        1.671      169.876      119.255       70.311    28857.777    14221.640     4943.584        5.061        2.401      230.687       85.956        0.139      348.369       28.011      857.032
08/20/2014  18:33:00     -312.448     -222.835      -19.570      175.752      163.437       81.697    30888.696    26711.662     6674.381       10.596        3.214      383.770       98.718        0.066      348.317       27.921      857.041
08/20/2014  18:34:00     -373.073     -148.167        1.851      231.315      218.583      118.578    53506.677    47778.312    14060.701       13.822        5.767      401.418      108.882        0.074      348.275       27.849      857.020
08/20/2014  18:35:00     -610.354     -344.947      -44.565      282.451      202.293      107.300    79778.658    40922.328    11513.214       31.283        6.611      701.085      119.346        0.029      348.106       27.557      856.998
08/20/2014  18:36:00     -369.604     -157.352      -19.347      282.179      184.999       93.611    79624.976    34224.785     8763.012       14.215        6.131      401.705      130.397        0.105      348.172       27.671      857.057
08/20/2014  18:37:00     -259.789     -125.720        3.486      189.880      146.146       79.742    36054.279    21358.760     6358.810        7.353        3.189      288.610       93.795        0.106      348.225       27.761      857.065
08/20/2014  18:38:00     -430.441     -150.566       -3.440      201.570      146.605       73.801    40630.445    21493.029     5446.575       13.775        3.379      456.014       83.022        0.033      348.132       27.601      857.046
08/20/2014  18:39:00     -252.932      -91.763       14.085      194.729      120.487       65.311    37919.518    14517.014     4265.559        6.464        2.835      269.063       83.418        0.096      348.134       27.605      857.041
08/20/2014  18:40:00     -337.566     -180.826       -7.395      211.217      130.405       83.770    44612.725    17005.429     7017.437       10.766        3.432      382.947      106.203        0.077      348.165       27.658      857.057
08/20/2014  18:41:00     -315.600     -185.601      -20.640      134.191      113.867       67.021    18007.192    12965.692     4491.845        8.496        1.773      366.130       69.422        0.036      348.145       27.625      857.067
08/20/2014  18:42:00     -286.972     -106.605       -2.729      188.689      174.702       88.444    35603.526    30520.769     7822.421        8.382        3.697      306.134       90.674        0.088      348.209       27.735      857.064
08/20/2014  18:43:00     -365.059      -77.922       -7.045      159.827      131.448       86.602    25544.681    17278.502     7499.869        9.485        2.516      373.282       89.295        0.057      348.147       27.627      857.073
08/20/2014  18:44:00     -294.722     -167.351       11.085      215.230      192.831      108.193    46323.944    37183.919    11705.830       10.508        4.761      338.922      123.111        0.132      348.119       27.578      857.087
08/20/2014  18:45:00     -297.986     -188.212      -19.144      212.120      147.030       92.670    44994.876    21617.703     8587.819        9.988        3.760      352.447      110.406        0.098      348.120       27.579      857.108
08/20/2014  18:46:00     -350.460     -162.206      -14.482      206.713      138.468       89.527    42730.361    19173.458     8015.014       10.962        3.496      386.177       93.952        0.059      348.035       27.434      857.106
08/20/2014  18:47:00     -205.056     -111.817        7.888      144.012      115.077       79.874    20739.386    13242.749     6379.814        4.748        2.018      233.562       78.963        0.114      348.101       27.547      857.121
08/20/2014  18:48:00     -207.751      -55.832       -2.272      165.174      105.304       76.357    27282.515    11088.846     5830.360        4.523        2.210      215.122       85.771        0.159      348.123       27.586      857.148
08/20/2014  18:49:00     -169.982      -63.246        8.965      151.043       82.005       69.362    22814.090     6724.815     4811.086        3.366        1.717      181.367       79.972        0.194      348.149       27.632      857.172
08/20/2014  18:50:00     -282.851      -32.776        4.209      162.256      139.186       80.742    26327.028    19372.689     6519.200        6.665        2.611      284.743       89.638        0.099      348.063       27.483      857.175
08/20/2014  18:51:00     -292.722     -131.469       -9.876      152.825      139.927       75.123    23355.550    19579.585     5643.513        7.581        2.429      320.889       78.331        0.060      348.046       27.453      857.160
08/20/2014  18:52:00     -252.753     -212.250       -5.262      159.688      158.647       85.118    25500.142    25168.849     7245.116        8.343        2.896      330.051       92.935        0.079      347.950       27.286      857.135
08/20/2014  18:53:00     -243.140      -82.408        6.419      186.172      112.434       82.199    34660.029    12641.311     6756.677        5.999        2.703      256.726       84.934        0.109      347.982       27.343      857.133
08/20/2014  18:54:00     -229.358     -101.486       13.698      181.086      167.074       89.143    32792.209    27913.702     7946.484        6.586        3.433      250.807       82.965        0.109      347.960       27.305      857.126
08/20/2014  18:55:00     -394.362     -230.870      -11.672      225.421      182.386       83.825    50814.402    33264.558     7026.672       15.001        4.555      456.971       94.532        0.043      347.899       27.198      857.105
08/20/2014  18:56:00     -214.538     -199.393       11.109      197.658      182.045       95.547    39068.750    33140.510     9129.266        8.361        4.067      292.889       92.343        0.099      347.881       27.169      857.110
08/20/2014  18:57:00     -266.557     -125.660       -3.282      190.261      142.680       82.728    36199.287    20357.573     6843.925        7.511        3.170      294.691       98.395        0.111      347.891       27.185      857.110
08/20/2014  18:58:00     -259.554     -161.531        7.177      197.126      154.846       71.121    38858.553    23977.301     5058.189        8.069        3.395      305.713       88.983        0.085      347.862       27.135      857.106
08/20/2014  18:59:00     -418.628     -133.950       -2.603      240.009      185.343      109.833    57604.450    34352.021    12063.269       14.859        5.201      439.536      122.984        0.078      347.840       27.098      857.108
08/20/2014  19:00:00     -445.512      -58.108      -30.771      235.356      157.520       90.135    55392.351    24812.489     8124.343       14.555        4.416      449.286       87.758        0.038      347.855       27.122      857.113
08/20/2014  19:01:00     -412.464       -9.700      -10.175      208.947      154.273       88.100    43658.816    23800.073     7761.554       12.276        3.761      412.578      101.464        0.060      347.827       27.074      857.109
08/20/2014  19:02:00     -436.257      -64.520      -17.138      174.047      143.485       82.957    30292.364    20587.817     6881.894       12.626        2.888      441.003       84.641        0.037      347.817       27.057      857.138
08/20/2014  19:03:00     -367.929      -21.682       -6.119      206.235      144.653       84.867    42532.683    20924.593     7202.347       10.326        3.533      368.567       84.790        0.053      347.804       27.035      857.146
08/20/2014  19:04:00     -217.271     -170.701        1.143      149.705      122.186       70.807    22411.535    14929.471     5013.646        5.934        2.118      276.307       84.435        0.093      347.821       27.065      857.180
08/20/2014  19:05:00     -317.223     -230.156       -8.063      164.510      133.235       74.870    27063.646    17751.503     5605.578       10.203        2.521      391.922       78.163        0.040      347.796       27.021      857.185
08/20/2014  19:06:00     -305.764     -228.435       -2.871      169.062      154.806       75.147    28581.857    23964.947     5647.131       10.193        2.910      381.672       83.247        0.048      347.785       27.003      857.188
08/20/2014  19:07:00     -289.630     -158.885       -9.995      184.903      139.911       79.027    34189.169    19575.177     6245.261        8.461        3.000      330.349       84.946        0.066      347.738       26.921      857.191
08/20/2014  19:08:00     -212.727      -83.957       18.739      190.223      128.506       91.460    36184.944    16513.875     8365.011        5.685        3.053      228.695      102.707        0.202      347.762       26.965      857.197
08/20/2014  19:09:00     -364.585     -174.334       -0.648      206.572      137.785       81.847    42672.047    18984.801     6698.883       11.582        3.418      404.122       89.288        0.049      347.677       26.817      857.178
08/20/2014  19:10:00     -272.721     -110.697      -13.356      159.265       98.813       68.470    25365.449     9764.080     4688.100        6.331        1.991      294.331       73.205        0.062      347.702       26.858      857.188
08/20/2014  19:11:00     -346.776     -146.285      -20.598      219.132      145.932       78.228    48019.033    21296.163     6119.638       10.874        3.772      376.368       91.193        0.059      347.645       26.762      857.199
08/20/2014  19:12:00     -449.589     -312.278      -17.544      240.278      218.174      114.182    57733.485    47599.727    13037.608       20.914        5.919      547.401      137.071        0.063      347.581       26.650      857.162
08/20/2014  19:13:00     -324.484     -232.262        3.072      255.299      172.997       99.725    65177.776    29927.839     9945.076       13.213        5.253      399.043      109.166        0.075      347.578       26.646      857.184
08/20/2014  19:14:00     -415.944     -154.995      -12.320      215.096      199.615       91.665    46266.251    39846.305     8402.562       14.583        4.726      443.884       90.112        0.041      347.560       26.614      857.172
08/20/2014  19:15:00     -458.032     -252.034      -13.706      222.305      175.329       81.647    49419.314    30740.432     6666.192       18.015        4.341      522.795       97.663        0.035      347.550       26.598      857.183
08/20/2014  19:16:00     -470.890     -171.849       -0.826      267.300      189.363      111.192    71449.103    35858.202    12363.685       18.545        5.984      501.267      138.834        0.077      347.522       26.549      857.195
08/20/2014  19:17:00     -377.030     -258.132        2.037      235.198      182.614      119.853    55317.875    33347.963    14364.789       15.589        5.152      456.929      138.435        0.092      347.520       26.544      857.192
08/20/2014  19:18:00     -482.652     -199.308      -14.334      222.058      196.816      100.973    49309.546    38736.704    10195.583       18.554        4.912      522.184      111.719        0.046      347.511       26.528      857.210
08/20/2014  19:19:00     -361.699     -148.016      -15.357      193.301      137.645       81.038    37365.173    18946.221     6567.078       10.791        3.144      390.813       92.918        0.057      347.512       26.531      857.250
08/20/2014  19:20:00     -345.436     -169.952        1.321      252.474      199.331      104.912    63743.067    39732.937    11006.515       13.132        5.724      384.980      125.102        0.106      347.473       26.466      857.247
08/20/2014  19:21:00     -440.113     -114.447      -34.145      148.994      173.263       99.559    22199.114    30019.984     9911.964       13.504        3.107      454.750       87.067        0.037      347.452       26.428      857.280
08/20/2014  19:22:00     -284.843     -211.200       17.312      258.387      190.922      113.617    66763.989    36451.121    12908.870       12.106        5.806      354.599      134.156        0.143      347.404       26.345      857.268
08/20/2014  19:23:00     -310.102     -144.222       -7.540      191.091      167.522       91.648    36515.829    28063.730     8399.345        9.498        3.649      341.999       90.532        0.070      347.410       26.356      857.300
08/20/2014  19:24:00     -330.723     -159.405      -29.524      113.430      130.550       68.867    12866.436    17043.268     4742.723        8.515        1.733      367.135       56.445        0.024      347.400       26.337      857.319
08/20/2014  19:25:00     -310.527     -195.205      -16.465      172.299      141.302       87.608    29686.891    19966.133     7675.129        9.605        2.866      366.786       85.341        0.054      347.371       26.288      857.305
08/20/2014  19:26:00     -350.961      -95.107        5.309      149.280      142.402       68.493    22284.637    20278.272     4691.320        8.974        2.363      363.619       70.738        0.038      347.368       26.285      857.324
08/20/2014  19:27:00     -286.693     -155.423        5.938      241.361      159.155       90.854    58255.137    25330.443     8254.409        9.909        4.592      326.113      118.149        0.131      347.347       26.248      857.329
08/20/2014  19:28:00     -197.994      -83.173        3.626      129.004      108.323       59.351    16641.905    11733.871     3522.484        3.901        1.595      214.755       54.747        0.065      347.353       26.256      857.365
08/20/2014  19:29:00     -437.030     -261.156       -7.880      218.134      130.582       84.548    47582.507    17051.733     7148.342       16.551        3.589      509.115       99.852        0.038      347.298       26.162      857.364
08/20/2014  19:30:00     -449.269     -226.232      -17.554      230.679      196.066      102.431    53213.017    38441.752    10492.154       17.772        5.107      503.014      102.438        0.041      347.274       26.121      857.361
08/20/2014  19:31:00     -466.578     -275.616       -0.022      179.872      147.902       84.588    32353.914    21875.082     7155.051       17.751        3.069      541.903       85.637        0.025      347.268       26.109      857.352
08/20/2014  19:32:00     -456.472     -248.666      -19.653      196.374      200.251      101.805    38562.868    40100.338    10364.233       17.979        4.451      519.809       97.482        0.035      347.252       26.083      857.359
08/20/2014  19:33:00     -384.174     -213.390        7.576      285.533      161.518      106.872    81528.826    26088.019    11421.597       15.609        5.952      439.460      132.655        0.091      347.227       26.041      857.355
08/20/2014  19:34:00     -401.361     -200.938      -17.368      208.093      174.905       97.222    43302.761    30591.816     9452.099       14.254        4.167      448.851      101.824        0.051      347.219       26.025      857.364
08/20/2014  19:35:00     -513.069     -125.829       -4.354      237.274      196.605      103.522    56298.808    38653.494    10716.739       19.236        5.283      528.273      118.337        0.050      347.163       25.929      857.353
08/20/2014  19:36:00     -375.189     -244.288       -9.733      265.871      209.848      104.001    70687.353    44036.194    10816.135       16.301        6.277      447.709      119.823        0.072      347.156       25.919      857.367
08/20/2014  19:37:00     -595.977     -201.759      -39.015      229.121      218.955      103.071    52496.616    47941.145    10623.717       25.422        5.553      629.202       99.016        0.025      347.148       25.904      857.356
08/20/2014  19:38:00     -458.481      -71.442       -1.943      254.248      176.858      104.208    64641.884    31278.642    10859.344       16.102        5.339      464.013      111.685        0.058      347.133       25.880      857.371
08/20/2014  19:39:00     -570.402     -304.324      -10.297      266.424      273.680      116.217    70981.596    74900.486    13506.362       28.870        7.969      646.507      127.147        0.039      347.119       25.854      857.379
08/20/2014  19:40:00     -395.544      -92.845        5.264      179.479      155.624       83.428    32212.631    24218.762     6960.189       11.423        3.170      406.295       91.587        0.051      347.130       25.871      857.415
08/20/2014  19:41:00     -335.735      -80.318       -1.925      206.295      135.701       86.321    42557.765    18414.691     7451.377        9.378        3.421      345.208       98.241        0.081      347.097       25.816      857.448
08/20/2014  19:42:00     -357.714      -20.975       -3.005      151.318      148.189       84.079    22896.994    21959.971     7069.255        9.016        2.596      358.329       81.112        0.051      347.086       25.796      857.470
08/20/2014  19:43:00     -222.232     -141.253       10.141      169.553       99.915       66.822    28748.346     9982.977     4465.130        5.631        2.160      263.324       82.762        0.099      347.065       25.760      857.495
08/20/2014  19:44:00     -375.292     -237.937      -10.195      220.237      180.469       86.231    48504.173    32569.010     7435.756       14.302        4.425      444.363      102.596        0.053      347.052       25.738      857.487
08/20/2014  19:45:00     -559.285     -328.104      -17.074      251.721      203.335      100.245    63363.253    41345.229    10048.961       26.773        5.738      648.423       90.486        0.019      347.003       25.654      857.487
08/20/2014  19:46:00     -440.799     -238.041      -10.206      235.187      209.976      109.271    55312.704    44089.860    11940.219       18.118        5.567      500.966      114.288        0.052      346.978       25.612      857.488
08/20/2014  19:47:00     -436.006     -189.836      -12.546      241.145      171.345      106.230    58150.922    29359.200    11284.869       16.253        4.940      475.541      125.758        0.070      346.963       25.584      857.506
08/20/2014  19:48:00     -410.143     -206.161      -13.350      243.408      153.124       91.754    59247.330    23446.861     8418.713       15.099        4.556      459.042      101.205        0.049      346.968       25.594      857.491
08/20/2014  19:49:00     -328.421     -162.179       -5.270      198.117      158.659       83.398    39250.473    25172.567     6955.246       10.277        3.569      366.282       91.787        0.063      346.947       25.558      857.499
08/20/2014  19:50:00     -395.467     -123.643       -9.426      274.892      210.552      125.807    75565.488    44332.279    15827.387       15.372        6.786      414.345      150.731        0.132      346.920       25.511      857.513
08/20/2014  19:51:00     -508.213     -121.606      -24.087      250.268      189.519      105.097    62634.105    35917.576    11045.335       19.160        5.480      522.560      120.422        0.053      346.920       25.512      857.531
08/20/2014  19:52:00     -401.669     -209.592       -8.925      269.866      154.999      118.945    72827.806    24024.700    14147.825       15.815        5.550      453.064      137.092        0.092      346.913       25.498      857.540
08/20/2014  19:53:00     -408.901     -180.782       -7.741      304.943      206.262      123.347    92990.032    42543.863    15214.588       17.532        7.537      447.082      151.454        0.115      346.879       25.439      857.552
08/20/2014  19:54:00     -401.223     -225.903      -18.056      237.932      216.771      107.104    56611.714    46989.454    11471.236       16.368        5.754      460.448      120.240        0.068      346.889       25.457      857.593
08/20/2014  19:55:00     -357.092     -229.179      -20.250      207.869      201.224       89.031    43209.701    40491.165     7926.517       13.602        4.581      424.308      106.735        0.063      346.892       25.463      857.596
08/20/2014  19:56:00     -393.114     -180.092      -10.517      246.870      224.922       98.737    60944.764    50590.110     9748.953       15.416        6.064      432.403      128.132        0.088      346.837       25.368      857.628
08/20/2014  19:57:00     -304.724     -168.380        5.670      267.278      195.010      115.555    71437.610    38029.004    13352.899       12.201        6.141      348.150      113.597        0.106      346.836       25.367      857.639
08/20/2014  19:58:00     -312.989     -233.950       -2.037      239.494      215.377      115.214    57357.236    46387.446    13274.353       13.484        5.851      390.762      119.911        0.094      346.819       25.337      857.661
08/20/2014  19:59:00     -448.780     -260.259      -18.263      186.661      136.570       97.799    34842.229    18651.379     9564.698       16.625        3.153      518.785      101.082        0.038      346.804       25.311      857.674
08/20/2014  20:00:00     -620.195     -140.623      -29.611      206.526      188.788      103.372    42652.939    35641.055    10685.751       24.712        4.449      635.937      104.369        0.027      346.776       25.264      857.707
08/20/2014  20:01:00     -416.024     -138.871      -18.217      220.115      173.127       91.365    48450.654    29972.957     8347.615       13.971        4.339      438.589       95.429        0.047      346.749       25.217      857.695
08/20/2014  20:02:00     -301.415      -72.583      -11.433      184.664      116.457       77.084    34100.740    13562.290     5941.978        7.492        2.680      310.031       79.084        0.065      346.738       25.199      857.725
08/20/2014  20:03:00     -227.022     -159.237       20.840      213.554      161.740       90.322    45605.348    26159.970     8158.071        7.861        3.996      277.301       99.661        0.129      346.717       25.162      857.726
08/20/2014  20:04:00     -329.039     -235.129      -12.955      207.488      205.474      112.468    43051.375    42219.598    12648.977       13.080        4.896      404.416      122.474        0.092      346.733       25.190      857.718
08/20/2014  20:05:00     -437.236     -256.012      -16.201      260.571      240.387      107.061    67897.204    57785.846    11462.069       19.704        6.857      506.673      130.997        0.067      346.708       25.145      857.717
08/20/2014  20:06:00     -653.929     -396.320      -43.019      311.139      207.612      124.902    96807.540    43102.869    15600.563       37.100        7.776      764.652      138.822        0.033      346.710       25.148      857.689
08/20/2014  20:07:00     -257.702     -110.783       17.530      226.556      187.786      103.639    51327.668    35263.399    10741.086        8.814        4.867      280.505      113.886        0.165      346.705       25.141      857.675
08/20/2014  20:08:00     -198.770     -110.785       19.597      163.001      138.252       84.847    26569.441    19113.522     7199.078        5.251        2.644      227.559       87.876        0.149      346.658       25.061      857.699
08/20/2014  20:09:00     -363.572     -231.655        2.628      232.554      192.836      106.544    54081.296    37185.800    11351.554       14.422        5.131      431.102      119.047        0.076      346.647       25.042      857.701
08/20/2014  20:10:00     -438.523     -241.788        4.099      341.453      219.765      120.580   116589.995    48296.657    14539.479       21.507        8.971      500.764      153.452        0.094      346.631       25.015      857.706
08/20/2014  20:11:00     -464.186     -154.473      -18.752      256.595      164.885      105.308    65841.231    27186.933    11089.836       17.188        5.206      489.215      117.043        0.057      346.614       24.985      857.743
08/20/2014  20:12:00     -328.917     -236.536       10.175      219.901      197.427       99.232    48356.452    38977.575     9846.909       13.069        4.859      405.136       99.425        0.060      346.610       24.978      857.747
08/20/2014  20:13:00     -294.439     -163.967       -7.601      204.372      161.731      106.914    41767.733    26156.986    11430.544        9.648        3.968      337.016      123.228        0.134      346.583       24.930      857.766
08/20/2014  20:14:00     -371.310     -214.124       -5.589      205.366      181.156      127.925    42175.278    32817.492    16364.753       13.754        4.568      428.627      135.513        0.100      346.554       24.881      857.739
08/20/2014  20:15:00     -327.949     -100.534       21.722      197.829      157.221       96.281    39136.495    24718.333     9270.045        9.561        3.656      343.013      110.041        0.103      346.533       24.847      857.757
08/20/2014  20:16:00     -458.056     -298.808      -29.782      264.508      241.844      137.373    69964.288    58488.412    18871.383       22.363        7.366      546.902      156.340        0.082      346.522       24.827      857.753
08/20/2014  20:17:00     -497.363     -319.250      -24.690      258.453      295.612      131.772    66797.878    87386.737    17363.751       26.069        8.577      591.008      139.550        0.056      346.502       24.792      857.791
08/20/2014  20:18:00     -468.644     -232.087      -23.148      241.139      234.629      113.118    58148.122    55050.765    12795.606       19.999        6.300      522.964      107.776        0.042      346.508       24.802      857.847
08/20/2014  20:19:00     -355.885     -187.801        2.142      213.962      191.884      100.419    45779.693    36819.559    10084.014       12.729        4.634      402.397       95.281        0.056      346.467       24.733      857.880
08/20/2014  20:20:00     -401.178     -236.489      -11.338      283.228      209.387      100.063    80218.370    43842.841    10012.644       17.551        6.704      465.694      126.300        0.074      346.464       24.728      857.893
08/20/2014  20:21:00     -569.807     -257.946      -17.906      274.963      280.907      122.713    75604.535    78908.831    15058.362       28.052        8.479      625.473      133.332        0.045      346.453       24.708      857.919
08/20/2014  20:22:00     -480.929     -271.548       -5.634      283.876      258.672      116.015    80585.575    66911.381    13459.515       23.298        8.048      552.296      140.446        0.065      346.442       24.689      857.942
08/20/2014  20:23:00     -578.255     -312.322      -23.061      291.569      234.480      134.934    85012.509    54980.950    18207.237       29.530        7.910      657.209      149.681        0.052      346.443       24.691      857.974
08/20/2014  20:24:00     -546.858     -271.288      -44.749      274.197      171.569      107.125    75183.900    29435.943    11475.696       24.535        5.805      610.452      121.407        0.040      346.427       24.664      858.013
08/20/2014  20:25:00     -403.793     -215.219        4.107      220.955      212.204       97.573    48821.280    45030.694     9520.491       15.636        5.169      457.568      113.694        0.062      346.397       24.612      858.040
08/20/2014  20:26:00     -405.467     -173.338       -8.185      315.175      239.986      125.680    99335.441    57593.338    15795.440       18.359        8.636      440.964      153.728        0.122      346.380       24.583      858.049
08/20/2014  20:27:00     -504.430     -279.269      -26.881      188.094      214.459      106.041    35379.313    45992.851    11244.635       21.287        4.631      576.577       98.988        0.029      346.368       24.561      858.069
08/20/2014  20:28:00     -242.777     -171.384        3.099      203.822      211.633      106.319    41543.492    44788.666    11303.719        9.296        4.882      297.175      105.949        0.127      346.346       24.524      858.082
08/20/2014  20:29:00     -279.248      -86.110        5.282      189.328      165.064       87.267    35845.065    27246.095     7615.491        7.805        3.535      292.223       88.270        0.091      346.337       24.511      858.093
08/20/2014  20:30:00     -480.777     -288.534      -25.783      238.803      158.148       97.530    57026.815    25010.792     9512.004       20.329        4.577      560.712       99.575        0.032      346.326       24.492      858.084
08/20/2014  20:31:00     -457.258     -174.497      -11.672      198.165      165.508       82.042    39269.320    27392.939     6730.943       15.652        3.670      489.422       87.847        0.032      346.316       24.474      858.083
08/20/2014  20:32:00     -359.761     -213.585      -12.006      242.498      149.103       90.748    58805.425    22231.840     8235.109       13.221        4.464      418.386      107.233        0.066      346.277       24.404      858.065
08/20/2014  20:33:00     -422.241     -181.257      -30.518      232.690      153.318       93.052    54144.642    23506.520     8658.705       14.917        4.315      459.501      106.457        0.054      346.273       24.397      858.077
08/20/2014  20:34:00     -345.538      -97.675       -0.162      227.188      175.502       99.517    51614.360    30801.063     9903.595       11.061        4.616      359.078      121.357        0.114      346.267       24.387      858.081
08/20/2014  20:35:00     -401.199     -171.939      -10.771      248.577      205.048      121.418    61790.505    42044.775    14742.445       15.458        5.929      436.490      135.105        0.096      346.269       24.393      858.078
08/20/2014  20:36:00     -456.571     -224.648      -16.156      195.253      173.943       94.154    38123.612    30256.006     8864.955       16.820        3.862      508.845       93.773        0.034      346.264       24.382      858.117
08/20/2014  20:37:00     -321.379     -190.390       -0.066      192.495      173.114       85.811    37054.384    29968.527     7363.601       10.694        3.719      373.540       97.439        0.068      346.244       24.348      858.149
08/20/2014  20:38:00     -414.201     -150.969       -9.367      195.088      143.707       92.826    38059.165    20651.690     8616.694       13.087        3.366      440.856      115.126        0.068      346.255       24.366      858.214
08/20/2014  20:39:00     -353.749     -230.487      -10.234      184.744      145.386       82.754    34130.431    21137.117     6848.167       12.023        3.106      422.211       90.666        0.046      346.232       24.326      858.230
08/20/2014  20:40:00     -413.417     -130.461      -16.585      228.927      144.234       77.487    52407.436    20803.374     6004.209       13.370        3.961      433.513      105.843        0.060      346.201       24.274      858.261
08/20/2014  20:41:00     -415.010     -178.985      -14.215      183.249      212.598       81.178    33580.071    45197.853     6589.919       14.490        4.268      451.961       90.651        0.040      346.175       24.229      858.276
08/20/2014  20:42:00     -445.384     -328.200       10.847      273.583      211.641      133.140    74847.422    44791.789    17726.359       22.176        6.868      553.247      149.959        0.073      346.187       24.248      858.249
08/20/2014  20:43:00     -450.339      -74.207      -12.257      192.311      210.853       97.093    36983.564    44458.869     9427.063       14.965        4.543      456.412       93.290        0.042      346.162       24.208      858.299
08/20/2014  20:44:00     -288.957     -178.755        1.056      183.832      161.635       78.512    33794.036    26125.997     6164.169        9.075        3.304      339.778       84.061        0.061      346.165       24.212      858.319
08/20/2014  20:45:00     -559.468     -343.782      -39.657      270.521      204.655      102.428    73181.795    41883.786    10491.576       27.913        6.278      656.651      117.194        0.032      346.150       24.186      858.327
08/20/2014  20:46:00     -496.197     -138.010      -25.646      259.107      163.087       87.308    67136.252    26597.513     7622.632       18.362        5.068      515.032      108.980        0.045      346.104       24.108      858.367
08/20/2014  20:47:00     -256.503       -3.722        6.540      194.384      143.117       84.547    37785.326    20482.464     7148.229        6.562        3.271      256.530       89.316        0.121      346.086       24.076      858.407
08/20/2014  20:48:00     -487.564     -124.968      -11.532      286.231      208.957      113.804    81928.221    43663.078    12951.378       19.598        6.927      503.325      136.820        0.074      346.084       24.073      858.438
08/20/2014  20:49:00     -379.888     -142.086      -32.876      195.161      172.491       86.348    38087.729    29753.178     7455.938       12.043        3.765      405.590      101.141        0.062      346.088       24.080      858.489
08/20/2014  20:50:00     -389.034     -178.097      -34.887      235.213      197.154       84.941    55325.276    38869.559     7215.013       14.283        5.070      427.862       95.330        0.050      346.061       24.036      858.494
08/20/2014  20:51:00     -283.068     -112.089       -2.525      188.605      129.512       78.292    35571.909    16773.460     6129.632        7.557        2.924      304.452       87.631        0.083      346.054       24.022      858.533
08/20/2014  20:52:00     -258.353      -51.602       -0.649      168.320      115.259       62.880    28331.479    13284.582     3953.947        5.748        2.279      263.456       67.434        0.066      346.009       23.946      858.569
08/20/2014  20:53:00     -534.628      -79.951       -9.100      281.570      180.402      105.264    79281.552    32544.995    11080.417       20.758        6.145      540.573      124.468        0.053      346.008       23.944      858.582
08/20/2014  20:54:00     -488.558     -191.280      -10.841      252.851      256.616       99.011    63933.836    65851.770     9803.143       20.746        6.979      524.669      115.071        0.048      346.033       23.985      858.630
08/20/2014  20:55:00     -412.647      -73.219      -10.422      205.798      163.523       81.621    42352.708    26739.817     6662.000       12.574        3.788      419.093       98.579        0.055      346.017       23.959      858.685
08/20/2014  20:56:00     -463.009      -38.273      -40.956      210.951      115.447       79.372    44500.154    13327.937     6299.856       14.081        3.206      464.588       81.890        0.031      345.997       23.926      858.712
08/20/2014  20:57:00     -372.708     -179.747      -26.641      182.089      139.840       81.548    33156.338    19555.110     6650.018       11.563        2.968      413.788       84.371        0.042      345.981       23.895      858.743
08/20/2014  20:58:00     -470.975      -91.619      -22.483      194.003      155.076       72.967    37637.147    24048.660     5324.246       14.885        3.351      479.804       66.449        0.019      345.956       23.852      858.787
08/20/2014  20:59:00     -236.157      -92.282        7.864      194.476      134.187       80.089    37820.916    18006.149     6414.186        6.328        3.112      253.547       84.852        0.112      345.908       23.773      858.813
08/20/2014  21:00:00     -403.533     -174.234       -9.727      204.231      165.721       85.906    41710.223    27463.504     7379.797       13.491        3.828      439.541       96.170        0.048      345.919       23.790      858.842
08/20/2014  21:01:00     -315.101     -123.700      -11.925      185.344      126.783       74.414    34352.231    16073.904     5537.433        8.534        2.798      338.512       80.241        0.056      345.890       23.740      858.889
08/20/2014  21:02:00     -345.671        5.843      -12.024      190.745      124.176       82.251    36383.708    15419.612     6765.239        8.911        2.928      345.721       92.513        0.072      345.876       23.719      858.933
08/20/2014  21:03:00     -404.053        1.776      -23.237      201.711      134.484       82.836    40687.259    18085.878     6861.793       11.471        3.282      404.057       86.270        0.046      345.872       23.710      858.950
08/20/2014  21:04:00     -343.709      -54.132      -26.785       97.281      105.037       54.510     9463.601    11032.718     2971.334        7.262        1.173      347.945       38.270        0.012      345.857       23.685      858.997
08/20/2014  21:05:00     -373.775     -106.257       -5.343      114.119      109.302       53.251    13023.211    11946.948     2835.632        8.941        1.390      388.585       51.248        0.017      345.840       23.656      859.031
08/20/2014  21:06:00     -301.273      -84.294      -12.390      164.993      169.987       72.986    27222.790    28895.594     5326.961        7.972        3.072      312.843       64.853        0.043      345.836       23.648      859.017
08/20/2014  21:07:00     -225.435     -114.456        3.859      211.635      129.884       69.830    44789.283    16869.852     4876.229        6.522        3.327      252.826       69.665        0.076      345.791       23.572      859.057
08/20/2014  21:08:00     -326.487      -38.438      -30.557      171.120      105.639       77.381    29282.117    11159.578     5987.795        7.771        2.321      328.742       80.328        0.060      345.781       23.555      859.094
08/20/2014  21:09:00     -456.018       22.738      -43.436      171.943      141.293       67.781    29564.267    19963.842     4594.332       13.223        2.706      456.584       63.528        0.019      345.786       23.562      859.118
08/20/2014  21:10:00     -455.844       29.922      -50.823      137.510       96.289       63.234    18909.074     9271.534     3998.573       12.172        1.609      456.825       54.124        0.014      345.779       23.549      859.142
08/20/2014  21:11:00     -349.427      -92.835       -8.827      134.954      118.736       75.121    18212.650    14098.301     5643.215        8.437        1.898      361.549       67.440        0.035      345.745       23.493      859.147
08/20/2014  21:12:00     -281.500     -132.940      -13.757      100.680       86.834       54.585    10136.501     7540.112     2979.512        5.888        1.033      311.312       46.839        0.023      345.736       23.478      859.171
08/20/2014  21:13:00     -153.525      -17.504       -7.025       94.924       92.310       51.909     9010.621     8521.174     2694.496        2.207        1.011      154.519       46.312        0.090      345.706       23.426      859.188
08/20/2014  21:14:00     -415.555     -126.244      -28.140      279.204      134.206       73.218    77955.045    18011.373     5360.942       14.535        5.066      434.308       78.969        0.033      345.702       23.419      859.195
08/20/2014  21:15:00     -407.314      -32.759      -39.663      178.919      155.331       87.399    32011.934    24127.690     7638.587       11.615        3.189      408.630      100.539        0.061      345.679       23.378      859.216
08/20/2014  21:16:00     -381.590     -106.625      -29.718      108.166      105.391       65.883    11699.857    11107.362     4340.633        9.250        1.357      396.206       58.533        0.022      345.655       23.337      859.237
08/20/2014  21:17:00     -433.147      -68.568      -38.905      161.888      107.359       66.160    26207.717    11525.924     4377.187       11.796        2.106      438.541       69.717        0.025      345.650       23.327      859.232
08/20/2014  21:18:00     -368.069      -62.357      -25.258      142.682       87.921       60.859    20358.252     7730.097     3703.824        8.589        1.590      373.314       66.808        0.032      345.602       23.245      859.248
08/20/2014  21:19:00     -341.463      -16.249      -37.726      159.981      167.588       75.844    25593.898    28085.616     5752.237        8.885        2.972      341.849       69.585        0.041      345.615       23.267      859.264
08/20/2014  21:20:00     -237.076      -15.506      -51.140      171.553      147.588       62.613    29430.505    21782.076     3920.366        5.709        2.757      237.583       67.633        0.081      345.603       23.247      859.246
08/20/2014  21:21:00     -355.811      -57.109      -38.627      147.398      137.742       68.197    21726.170    18972.755     4650.882        8.834        2.267      360.365       66.747        0.034      345.587       23.219      859.269
08/20/2014  21:22:00     -350.948      -51.086      -51.061      200.956      146.511       73.630    40383.496    21465.618     5421.360        9.781        3.364      354.646       87.410        0.061      345.574       23.199      859.289
08/20/2014  21:23:00     -243.051       30.594      -23.045       83.604      124.713       62.205     6989.688    15553.282     3869.484        4.347        1.321      244.969       51.105        0.044      345.563       23.179      859.326
08/20/2014  21:24:00     -167.585        7.936      -28.812       75.854      105.016       41.129     5753.861    11028.342     1691.633        2.372        0.924      167.773       42.899        0.065      345.531       23.125      859.354
08/20/2014  21:25:00     -341.236      -34.380      -28.279      127.711      122.521       62.931    16310.050    15011.467     3960.315        7.685        1.764      342.963       54.027        0.025      345.488       23.050      859.374
08/20/2014  21:26:00     -182.974      -85.606      -20.785       85.558      105.120       58.203     7320.257    11050.307     3387.535        3.149        1.088      202.009       41.215        0.042      345.465       23.012      859.410
08/20/2014  21:27:00     -288.828       19.298      -37.145      125.700      143.920       67.343    15800.587    20713.051     4535.137        6.310        2.052      289.472       51.099        0.031      345.449       22.983      859.443
08/20/2014  21:28:00     -243.545      -45.002      -20.522      129.158      141.912       57.951    16681.691    20138.959     3358.357        5.096        2.009      247.668       21.099        0.007      345.479       23.035      859.447
08/20/2014  21:29:00     -279.679     -141.301      -32.214      150.761      114.810       61.204    22728.783    13181.230     3745.918        6.943        1.983      313.347       38.930        0.015      345.470       23.019      859.447
08/20/2014  21:30:00     -208.406      -44.562      -20.620      130.326      132.845       66.600    16984.750    17647.892     4435.560        4.245        1.953      213.117       68.249        0.103      345.499       23.070      859.500
08/20/2014  21:31:00     -112.136       -6.390       13.256      135.320      121.842       59.568    18311.510    14845.393     3548.317        2.474        1.835      112.318       64.290        0.328      345.449       22.984      859.506
08/20/2014  21:32:00     -338.158      -24.791      -35.082      119.007       95.005       49.374    14162.656     9025.906     2437.793        7.091        1.281      339.066       36.566        0.012      345.454       22.992      859.558
08/20/2014  21:33:00     -159.530        8.855      -11.327      124.587       73.199       57.819    15522.033     5358.117     3343.094        2.494        1.211      159.775       60.969        0.146      345.441       22.971      859.592
08/20/2014  21:34:00     -196.901      -37.580      -12.444      104.875       84.465       64.296    10998.862     7134.397     4134.011        3.130        1.113      200.456       57.717        0.083      345.446       22.978      859.593
08/20/2014  21:35:00     -209.051      164.862      -24.072      183.332      137.362       92.584    33610.725    18868.440     8571.734        6.624        3.053      266.237      103.321        0.151      345.454       22.993      859.601
08/20/2014  21:36:00     -178.009       92.745       -9.541      118.021      121.167       68.038    13928.900    14681.537     4629.141        3.680        1.662      200.721       60.478        0.091      345.462       23.005      859.611
08/20/2014  21:37:00     -186.058      -39.115       -2.444      149.178      132.763       68.758    22253.955    17625.909     4727.670        4.037        2.230      190.125       66.843        0.124      345.421       22.936      859.623
08/20/2014  21:38:00     -244.657       28.075      -19.229      155.108      130.013       58.551    24058.492    16903.411     3428.236        5.269        2.220      246.262       69.648        0.080      345.427       22.947      859.658
08/20/2014  21:39:00     -262.290      -59.180      -19.587      166.119      132.787       73.978    27595.648    17632.417     5472.732        6.168        2.535      268.883       37.262        0.019      345.397       22.894      859.679
08/20/2014  21:40:00     -294.654      -26.855      -37.731      160.928      105.377       63.498    25897.982    11104.214     4032.025        6.499        2.052      295.875       58.089        0.039      345.380       22.866      859.701
08/20/2014  21:41:00     -279.124      -54.149      -29.496       99.968      103.788       55.404     9993.678    10771.849     3069.556        5.277        1.192      284.328       36.541        0.017      345.368       22.843      859.734
08/20/2014  21:42:00     -178.868      -50.278      -16.702      129.487      112.612       55.813    16766.919    12681.567     3115.119        3.368        1.628      185.800       52.659        0.080      345.370       22.849      859.737
08/20/2014  21:43:00     -134.044      -22.870        1.632      107.261      115.460       60.181    11504.835    13330.916     3621.728        2.347        1.423      135.981       40.264        0.088      345.331       22.783      859.747
08/20/2014  21:44:00     -245.752       24.204      -30.199       87.796      176.341       53.992     7708.207    31096.224     2915.108        5.180        2.086      246.941       52.345        0.045      345.396       22.893      859.764
08/20/2014  21:45:00     -155.129      185.577      -15.852      128.126      230.423       90.122    16416.253    53094.943     8121.980        6.818        3.882      241.875       71.400        0.087      345.418       22.931      859.771
08/20/2014  21:46:00     -205.822       78.317      -31.487      106.387      158.188       53.842    11318.092    25023.374     2899.013        4.436        1.962      220.219       59.053        0.072      345.405       22.907      859.788
08/20/2014  21:47:00     -173.752       21.510      -26.464      107.028       84.035       48.015    11455.033     7061.925     2305.469        2.608        1.041      175.079       46.109        0.069      345.425       22.942      859.803
08/20/2014  21:48:00     -270.453      181.083      -58.635      146.288      114.521       67.624    21400.280    13115.012     4573.032        7.422        1.954      325.478       74.312        0.052      345.428       22.948      859.846
08/20/2014  21:49:00     -228.162      -53.237       -5.483      123.366      118.370       69.168    15219.242    14011.363     4784.262        4.446        1.701      234.291       75.638        0.104      345.384       22.872      859.847
08/20/2014  21:50:00     -233.223      -97.290      -13.761      156.394      119.723       69.693    24459.071    14333.706     4857.065        5.384        2.182      252.702       56.755        0.050      345.291       22.714      859.847
08/20/2014  21:51:00      -61.249       19.806       19.018      113.114       96.267       61.092    12794.728     9267.397     3732.292        1.514        1.290       64.371       67.480        1.099      345.204       22.567      859.858
08/20/2014  21:52:00     -263.327       66.418      -51.555      130.561      100.955       60.874    17046.169    10191.969     3705.678        5.367        1.547      271.574       60.746        0.050      345.315       22.754      859.850
08/20/2014  21:53:00     -109.114        3.873      -20.832      131.813       71.595       60.846    17374.741     5125.841     3702.248        1.927        1.310      109.183       62.896        0.332      345.274       22.687      859.839
08/20/2014  21:54:00     -213.527      -38.521      -20.860      111.803       84.254       49.021    12499.984     7098.770     2403.078        3.475        1.100      216.974       30.800        0.020      345.282       22.700      859.850
08/20/2014  21:55:00     -324.935      -38.718      -35.677      144.729      114.799       58.895    20946.545    13178.738     3468.650        7.297        1.880      327.233       47.909        0.021      345.247       22.637      859.841
08/20/2014  21:56:00      -98.103      -31.721       27.772       93.861       87.131       49.384     8809.818     7591.808     2438.802        1.512        0.942      103.104       42.403        0.169      345.180       22.524      859.852
08/20/2014  21:57:00     -231.653      -64.393      -35.597      102.109      126.324       53.672    10426.288    15957.875     2880.695        4.417        1.463      240.436       33.481        0.019      345.169       22.503      859.870
08/20/2014  21:58:00     -317.177        3.073      -44.503      157.598      135.475       58.037    24837.019    18353.417     3368.294        7.457        2.328      317.192       31.232        0.010      345.193       22.545      859.860
08/20/2014  21:59:00     -250.434      -41.279      -12.428      206.961      111.884       71.357    42832.866    12517.967     5091.857        6.250        3.022      253.814       77.772        0.094      345.144       22.461      859.860
08/20/2014  22:00:00     -349.773      -67.166      -16.155      184.535      138.537       69.457    34053.074    19192.583     4824.211        9.258        2.903      356.164       81.780        0.053      345.093       22.375      859.864
08/20/2014  22:01:00     -225.518      -33.385      -19.564      117.295      131.932       68.687    13758.035    17405.924     4717.885        4.411        1.794      227.976       59.593        0.068      345.119       22.419      859.863
08/20/2014  22:02:00     -229.966      -12.601       -9.173      124.396      126.882       73.711    15474.475    16098.967     5433.249        4.506        1.850      230.311       71.649        0.097      345.066       22.329      859.857
08/20/2014  22:03:00     -262.985        3.830      -12.825      119.786      116.083       64.458    14348.738    13475.371     4154.830        5.065        1.599      263.013       69.402        0.070      345.109       22.402      859.848
08/20/2014  22:04:00     -239.892      -42.639      -36.706      125.839      100.369       58.176    15835.412    10074.020     3384.400        4.500        1.465      243.652       43.609        0.032      345.086       22.361      859.847
08/20/2014  22:05:00     -217.966      -49.028      -15.035      140.501       86.408       56.840    19740.452     7466.261     3230.758        4.028        1.522      223.412       45.463        0.041      345.037       22.281      859.835
08/20/2014  22:06:00     -153.459       38.713      -15.681      137.187       77.868       56.396    18820.171     6063.401     3180.559        2.667        1.403      158.267       75.490        0.228      345.018       22.247      859.830
08/20/2014  22:07:00     -213.568       83.146       -8.336      100.456      149.945       74.069    10091.480    22483.389     5486.251        4.532        1.903      229.182       70.936        0.096      345.051       22.301      859.808
08/20/2014  22:08:00     -184.823      -18.805      -62.386      112.938       79.232       81.860    12754.950     6277.688     6701.083        3.206        1.287      185.777       60.208        0.105      345.064       22.326      859.808
08/20/2014  22:09:00     -220.570       29.475      -48.483       84.185       97.945       55.252     7087.043     9593.301     3052.771        3.580        0.987      222.530       29.243        0.017      345.050       22.301      859.826
08/20/2014  22:10:00     -296.224      -12.992      -35.133      131.182      137.022       65.190    17208.621    18775.107     4249.723        6.468        2.012      296.509       41.617        0.020      345.011       22.234      859.843
08/20/2014  22:11:00     -254.044        6.176      -39.048       84.917       97.835       51.390     7210.960     9571.671     2640.942        4.276        0.971      254.119       35.543        0.020      344.998       22.210      859.858
08/20/2014  22:12:00     -213.915       38.297      -20.820      107.877      137.028       77.674    11637.537    18776.559     6033.312        4.205        1.822      217.316       57.807        0.071      344.981       22.182      859.894
08/20/2014  22:13:00     -244.849      -60.807      -30.266      139.034      110.106       65.219    19330.421    12123.350     4253.466        5.013        1.785      252.287       69.223        0.075      344.980       22.180      859.909
08/20/2014  22:14:00     -196.305      -22.996      -19.710       91.968       67.055       54.753     8458.095     4496.307     2997.844        2.770        0.798      197.648       41.354        0.044      344.992       22.201      859.927
08/20/2014  22:15:00     -201.562       40.039      -25.267       79.959       94.217       56.010     6393.453     8876.781     3137.080        3.063        0.920      205.500       45.431        0.049      344.980       22.180      859.950
08/20/2014  22:16:00     -179.935      -43.385      -10.026      120.081       96.078       51.726    14419.404     9231.021     2675.557        3.034        1.316      185.092       31.426        0.029      344.981       22.181      859.949
08/20/2014  22:17:00     -208.199      -91.728       -3.933       97.898      111.161       62.508     9584.022    12356.754     3907.268        3.881        1.292      227.510       46.808        0.042      344.942       22.116      859.924
08/20/2014  22:18:00     -173.674       58.414      -23.106       82.374       92.129       61.205     6785.439     8487.816     3746.016        2.656        0.951      183.234       49.974        0.074      344.978       22.180      859.949
08/20/2014  22:19:00     -175.063       -9.913       -4.313      120.836      103.678       51.873    14601.385    10749.148     2690.852        2.940        1.402      175.344       55.164        0.099      344.939       22.109      859.945
08/20/2014  22:20:00     -196.734      -40.533       -9.483      128.742      121.691       70.164    16574.393    14808.755     4923.034        3.836        1.815      200.866       43.542        0.047      344.942       22.117      859.935
08/20/2014  22:21:00     -341.919      -33.045      -33.278      173.105      143.590       72.357    29965.190    20617.979     5235.592        8.745        2.791      343.512       58.987        0.029      344.943       22.117      859.927
08/20/2014  22:22:00     -197.965       -6.033      -30.737      119.634      115.040       56.987    14312.230    13234.301     3247.562        3.548        1.540      198.057       40.151        0.041      344.936       22.104      859.920
08/20/2014  22:23:00     -127.406      -10.994      -10.014       99.273      101.443       55.755     9855.031    10290.764     3108.573        1.985        1.163      127.880       26.612        0.043      344.946       22.125      859.899
08/20/2014  22:24:00     -165.735      -23.159      -15.159      142.837      125.520       63.268    20402.304    15755.335     4002.828        3.419        2.008      167.345       62.183        0.138      344.937       22.108      859.907
08/20/2014  22:25:00     -243.520      -34.213      -26.227      171.810       88.078       63.024    29518.708     7757.724     3972.015        5.120        2.062      245.912       66.542        0.073      344.947       22.125      859.894
08/20/2014  22:26:00     -234.417      -18.935      -24.491      110.372      107.439       63.304    12181.890    11543.050     4007.456        4.182        1.387      235.181       58.843        0.063      344.943       22.118      859.876
08/20/2014  22:27:00     -189.875      -95.253      -20.461      120.232       84.289       45.764    14455.713     7104.704     2094.307        3.459        1.183      212.428       35.109        0.027      344.918       22.075      859.862
08/20/2014  22:28:00     -371.805     -122.414      -13.207      164.074      136.994       70.526    26920.160    18767.410     4973.899       10.202        2.533      391.438       68.408        0.031      344.931       22.096      859.851
08/20/2014  22:29:00     -322.004      -59.476      -49.251      128.513      104.030       69.955    16515.497    10822.251     4893.690        7.093        1.612      327.451       24.049        0.005      344.913       22.066      859.849
08/20/2014  22:30:00     -354.112      -74.270       -6.241      140.642      121.633       70.588    19780.181    14794.559     4982.602        8.525        1.978      361.817       75.843        0.044      344.845       21.949      859.862
08/20/2014  22:31:00     -235.287     -128.848      -23.899      173.796      118.981       76.204    30204.969    14156.553     5806.986        6.134        2.508      268.256       66.809        0.062      344.854       21.966      859.871
08/20/2014  22:32:00     -362.568     -105.520      -30.376      135.242      122.909       65.430    18290.438    15106.666     4281.027        9.059        1.884      377.611       47.161        0.016      344.849       21.957      859.881
08/20/2014  22:33:00     -331.925      -98.825       -6.872      168.957      142.172       82.838    28546.407    20212.814     6862.163        8.779        2.781      346.325       89.397        0.067      344.838       21.939      859.867
08/20/2014  22:34:00     -255.309      -32.621      -25.143       95.493       90.647       63.399     9118.933     8216.813     4019.475        4.411        1.068      257.385       51.331        0.040      344.838       21.938      859.873
08/20/2014  22:35:00     -342.670      -11.198      -30.528      143.482      115.604       70.061    20587.211    13364.304     4908.549        7.866        1.943      342.853       60.248        0.031      344.833       21.927      859.885
08/20/2014  22:36:00     -365.891      -92.553      -23.784      163.624      125.781       70.362    26772.651    15820.765     4950.759        9.527        2.377      377.415       73.903        0.038      344.864       21.983      859.864
08/20/2014  22:37:00     -460.635      -87.447      -46.410      174.685      160.409       82.034    30514.808    25730.951     6729.618       14.247        3.149      468.862       87.164        0.035      344.914       22.068      859.866
08/20/2014  22:38:00     -181.705       -4.227       -0.941      124.286      106.858       67.544    15446.925    11418.697     4562.255        3.223        1.571      181.754       46.215        0.065      344.904       22.051      859.837
08/20/2014  22:39:00     -320.461     -107.225      -34.217      156.040      147.166       61.763    24348.604    21657.756     3814.703        8.258        2.491      337.924       38.101        0.013      344.916       22.071      859.840
08/20/2014  22:40:00     -333.056      -78.672      -19.665      116.771      105.026       58.405    13635.474    11030.389     3411.171        7.278        1.404      342.221       53.716        0.025      344.863       21.979      859.846
08/20/2014  22:41:00     -329.258      -77.224      -10.570      157.392      103.894       74.407    24772.262    10793.975     5536.451        7.779        2.055      338.193       78.222        0.053      344.865       21.984      859.850
08/20/2014  22:42:00     -419.808      -85.544      -32.988      270.872      133.978       95.972    73371.602    17949.982     9210.629       14.257        5.027      428.435       91.456        0.046      344.869       21.992      859.825
08/20/2014  22:43:00     -441.766      -82.262      -33.803      203.372      154.706       82.885    41360.022    23934.048     6869.937       13.760        3.608      449.360       87.260        0.038      344.899       22.043      859.791
08/20/2014  22:44:00     -286.302     -150.347        5.539      115.494      106.962       66.611    13338.840    11440.767     4437.066        6.690        1.461      323.377       57.105        0.031      344.854       21.964      859.802
08/20/2014  22:45:00     -372.737     -140.190      -17.146      175.527      144.404       77.634    30809.674    20852.500     6026.961       10.827        2.884      398.228       72.094        0.033      344.880       22.009      859.801
08/20/2014  22:46:00     -380.315     -127.038      -13.979      225.851      166.528       85.257    51008.526    27731.708     7268.721       12.347        4.300      400.971       89.212        0.050      344.913       22.066      859.796
08/20/2014  22:47:00     -518.429     -118.143      -34.739      215.008      163.517       91.076    46228.330    26737.922     8294.919       18.258        4.063      531.720       96.866        0.033      344.972       22.168      859.795
08/20/2014  22:48:00     -301.668      -57.921      -25.470      155.790      132.504       66.381    24270.490    17557.289     4406.462        7.061        2.312      307.178       71.048        0.053      344.922       22.083      859.806
08/20/2014  22:49:00     -411.712     -104.167      -23.686      225.668      176.257       83.430    50925.883    31066.704     6960.604       13.492        4.448      424.686       79.455        0.035      344.924       22.084      859.810
08/20/2014  22:50:00     -383.352      -51.889      -57.963      176.907      142.753       72.613    31296.251    20378.467     5272.689       10.497        2.847      386.848       69.393        0.032      344.962       22.150      859.799
08/20/2014  22:51:00     -321.050      -90.835      -27.330      175.341      138.557       65.403    30744.590    19197.938     4277.594        8.313        2.711      333.653       55.292        0.027      344.937       22.106      859.808
08/20/2014  22:52:00     -517.349      -69.962      -52.679      158.320      142.851       76.033    25065.201    20406.271     5781.066       16.328        2.563      522.058       69.967        0.018      344.969       22.162      859.805
08/20/2014  22:53:00     -345.996      -70.525      -18.797      151.988      141.559       70.929    23100.463    20038.944     5030.934        8.660        2.409      353.110       67.950        0.037      344.944       22.118      859.812
08/20/2014  22:54:00     -336.295     -108.711      -11.296      144.507      124.261       74.290    20882.378    15440.896     5519.018        8.343        2.092      353.430       64.834        0.034      344.888       22.022      859.813
08/20/2014  22:55:00     -510.337      -69.833      -28.262      215.440      183.358       85.576    46414.485    33620.162     7323.208       17.672        4.368      515.093       92.642        0.032      344.932       22.098      859.790
08/20/2014  22:56:00     -402.046      -75.744      -14.878      189.027      153.830       83.059    35731.331    23663.630     6898.744       11.693        3.315      409.119       88.427        0.047      344.932       22.098      859.786
08/20/2014  22:57:00     -460.326     -107.039      -24.110      204.547      161.274       89.044    41839.619    26009.437     7928.756       14.984        3.789      472.607       83.635        0.031      344.917       22.074      859.801
08/20/2014  22:58:00     -451.013      -51.894      -32.085      212.090      164.302       83.517    44982.179    26995.040     6975.078       14.303        3.948      453.988       91.051        0.040      344.928       22.092      859.802
08/20/2014  22:59:00     -340.457      -72.505      -24.315      215.737      159.984       80.936    46542.653    25594.868     6550.664       10.021        3.934      348.092      101.163        0.084      344.894       22.035      859.810
08/20/2014  23:00:00     -366.746     -101.177       -2.466      175.639      131.422       73.382    30849.013    17271.827     5384.922        9.911        2.675      380.446       85.690        0.051      344.864       21.982      859.821
08/20/2014  23:01:00     -405.339     -154.866      -19.063      187.885      123.170       70.492    35300.816    15170.760     4969.154       12.203        2.772      433.916       67.165        0.024      344.878       22.006      859.798
08/20/2014  23:02:00     -421.183      -83.170      -10.605      179.389      138.745       71.248    32180.487    19250.289     5076.296       12.045        2.825      429.316       75.503        0.031      344.870       21.992      859.786
08/20/2014  23:03:00     -420.992      -83.225       -8.198      184.825      155.987       91.080    34160.457    24331.795     8295.527       12.549        3.339      429.139      105.557        0.061      344.876       22.002      859.761
08/20/2014  23:04:00     -377.176     -123.280       -1.792      182.054      129.423       72.992    33143.823    16750.299     5327.867       10.633        2.761      396.812       96.440        0.059      344.836       21.933      859.768
08/20/2014  23:05:00     -401.118     -112.321       -8.387      164.967      174.604       74.241    27213.991    30486.596     5511.710       11.838        3.161      416.547       78.548        0.036      344.827       21.918      859.764
08/20/2014  23:06:00     -572.543     -169.158      -11.616      283.912      166.977       87.847    80606.149    27881.310     7717.020       23.636        5.810      597.009      106.468        0.032      344.878       22.007      859.749
08/20/2014  23:07:00     -395.225      -87.863      -14.760      164.166      149.824       78.706    26950.575    22447.304     6194.616       10.986        2.780      404.873       78.074        0.037      344.823       21.913      859.789
08/20/2014  23:08:00     -351.052     -102.550      -12.096      210.186      193.925       91.021    44177.946    37606.926     8284.861       11.197        4.503      365.724      109.187        0.089      344.848       21.956      859.789
08/20/2014  23:09:00     -520.648      -80.804      -59.740      144.550      151.611       74.481    20894.749    22985.751     5547.438       16.529        2.471      526.881       80.149        0.023      344.837       21.936      859.807
08/20/2014  23:10:00     -605.687       -9.902      -61.607      163.390      152.541       83.855    26696.454    23268.614     7031.590       21.386        2.850      605.768       67.944        0.013      344.842       21.944      859.824
08/20/2014  23:11:00     -464.002     -142.785      -46.124      222.801      167.061       98.920    49640.242    27909.392     9785.251       16.256        4.367      485.475      101.888        0.044      344.828       21.920      859.821
08/20/2014  23:12:00     -340.827      -72.347      -29.418      139.259      113.954       70.610    19393.007    12985.616     4985.776        7.981        1.868      348.421       63.325        0.033      344.819       21.905      859.830
08/20/2014  23:13:00     -255.597      -92.174      -24.728      168.668      193.052       72.150    28448.985    37269.156     5205.582        7.267        3.546      271.709       69.169        0.065      344.830       21.924      859.847
08/20/2014  23:14:00     -360.494     -104.310      -15.877      198.355      121.703       82.128    39344.767    14811.638     6744.965       10.098        3.045      375.282       90.094        0.058      344.829       21.922      859.842
08/20/2014  23:15:00     -384.116      -91.078      -36.198      155.543       97.966       67.594    24193.573     9597.355     4568.975        9.775        1.918      394.767       66.532        0.028      344.831       21.924      859.857
08/20/2014  23:16:00     -290.476      -32.066       -6.612      162.038      126.872       57.035    26256.321    16096.427     3253.047        6.552        2.280      292.241       65.084        0.050      344.795       21.864      859.884
08/20/2014  23:17:00     -493.043      -69.435      -40.798      160.266      133.322       71.596    25685.227    17774.720     5125.925       14.907        2.429      497.908       64.497        0.017      344.812       21.893      859.897
08/20/2014  23:18:00     -325.321      -66.609      -13.058      181.208      131.553       73.072    32836.475    17306.159     5339.581        8.295        2.774      332.070       88.708        0.071      344.785       21.846      859.888
08/20/2014  23:19:00     -408.618      -79.822      -26.105       94.443      109.475       55.764     8919.573    11984.693     3109.601        9.901        1.201      416.341       46.999        0.013      344.783       21.842      859.886
08/20/2014  23:20:00     -485.658      -78.839      -34.004      165.279      153.728       79.777    27317.262    23632.303     6364.420       15.026        2.866      492.016       87.396        0.032      344.764       21.810      859.873
08/20/2014  23:21:00     -327.459      -87.590       -8.061      138.237      100.348       69.355    19109.433    10069.800     4810.079        7.447        1.699      338.971       56.559        0.028      344.759       21.803      859.876
08/20/2014  23:22:00     -307.369      -60.086       -9.559      141.329      128.066       58.929    19973.931    16400.881     3472.611        6.900        1.992      313.187       70.107        0.050      344.748       21.783      859.865
08/20/2014  23:23:00     -336.235      -51.567      -16.155      126.656      110.185       67.116    16041.834    12140.828     4504.574        7.432        1.634      340.166       63.214        0.035      344.704       21.709      859.866
08/20/2014  23:24:00     -175.304      -44.044       19.204      174.023      105.650       72.898    30284.168    11161.906     5314.103        3.989        2.338      180.752       79.035        0.191      344.696       21.695      859.868
08/20/2014  23:25:00     -421.607       17.173      -28.651      190.660      113.007       64.779    36351.270    12770.606     4196.365       11.608        2.666      421.956       80.283        0.036      344.711       21.720      859.891
08/20/2014  23:26:00     -443.226      -27.245      -47.604      187.400      114.643       63.155    35118.785    13143.034     3988.565       12.584        2.613      444.063       67.836        0.023      344.709       21.717      859.898
08/20/2014  23:27:00     -421.333     -112.601      -16.865      196.300      148.290       65.447    38533.710    21989.802     4283.369       12.763        3.240      436.120       81.460        0.035      344.753       21.792      859.896
08/20/2014  23:28:00     -453.557      -69.520      -37.711      111.789      116.817       58.143    12496.697    13646.310     3380.615       12.074        1.476      458.854       58.149        0.016      344.728       21.750      859.908
08/20/2014  23:29:00     -364.327        9.229      -18.124      270.933      151.551       91.717    73404.918    22967.731     8411.973       11.895        5.239      364.444      124.385        0.116      344.743       21.777      859.908
08/20/2014  23:30:00     -392.687      -19.321      -28.106      134.198      137.951       85.374    18008.981    19030.482     7288.685        9.984        2.216      393.162       71.728        0.033      344.755       21.794      859.905
08/20/2014  23:31:00     -367.712      -18.316      -24.141      141.583      178.911       71.861    20045.706    32009.325     5163.999        9.666        2.861      368.168       73.528        0.040      344.738       21.766      859.927
08/20/2014  23:32:00     -328.303      -49.589       -5.749      226.791      128.627       75.489    51434.260    16545.022     5698.613        9.196        3.684      332.027       83.712        0.064      344.733       21.758      859.938
08/20/2014  23:33:00     -327.714      -21.805      -15.278      160.969       86.948       72.927    25910.967     7559.946     5318.394        7.344        1.939      328.438       78.179        0.057      344.708       21.716      859.950
08/20/2014  23:34:00     -246.366      -30.268      -12.578      107.629       64.444       56.313    11584.036     4152.999     3171.137        4.034        0.945      248.218       58.438        0.055      344.660       21.632      859.959
08/20/2014  23:35:00     -386.434      -68.158      -26.792      149.390      132.355       73.281    22317.406    17517.855     5370.133        9.994        2.260      392.398       80.993        0.043      344.696       21.693      859.967
08/20/2014  23:36:00     -502.198      -39.606      -52.414      179.391      139.411       79.717    32181.177    19435.440     6354.862       15.723        2.899      503.757       81.619        0.026      344.742       21.773      859.961
08/20/2014  23:37:00     -355.221      -73.808      -21.632      148.228      107.197       59.205    21971.456    11491.169     3505.190        8.453        1.848      362.808       67.093        0.034      344.695       21.693      859.985
08/20/2014  23:38:00     -388.954     -117.804      -23.111      143.245      114.403       53.297    20519.096    13088.157     2840.570       10.107        1.822      406.403       49.115        0.015      344.697       21.694      859.997
08/20/2014  23:39:00     -335.946     -107.749      -21.832      148.210      108.304       66.373    21966.271    11729.764     4405.408        8.152        1.905      352.802       70.533        0.040      344.684       21.672      860.004
08/20/2014  23:40:00     -259.917      -58.271       -0.384      147.782      114.398       51.929    21839.397    13087.006     2696.612        5.428        1.881      266.369       38.020        0.020      344.653       21.621      860.012
08/20/2014  23:41:00     -323.895      -63.215       -6.598      147.518       80.832       63.250    21761.685     6533.854     4000.527        7.062        1.615      330.006       66.500        0.041      344.684       21.672      859.997
08/20/2014  23:42:00     -296.727      -57.104       -4.870      122.975       86.749       59.536    15122.834     7525.305     3544.491        5.876        1.310      302.172       65.669        0.047      344.664       21.638      860.011
08/20/2014  23:43:00     -314.238      -63.777      -14.465      123.712      106.702       63.185    15304.669    11385.419     3992.307        6.685        1.534      320.645       63.601        0.039      344.679       21.666      860.009
08/20/2014  23:44:00     -382.211       -4.621      -19.347      185.051      152.047       79.748    34243.876    23118.367     6359.750       10.509        3.186      382.239       82.305        0.046      344.704       21.709      859.982
08/20/2014  23:45:00     -314.126     -125.872       -6.268      144.197      121.002       71.092    20792.869    14641.431     5054.067        7.751        2.024      338.406       77.916        0.053      344.680       21.666      859.993
08/20/2014  23:46:00     -286.573      -30.795      -14.650      149.515      135.745       68.184    22354.633    18426.661     4649.010        6.435        2.272      288.223       75.335        0.068      344.660       21.632      859.981
08/20/2014  23:47:00     -352.739      -91.180      -11.460      179.231      120.688       78.022    32123.603    14565.678     6087.428        9.281        2.639      364.333       86.503        0.056      344.728       21.749      859.989
08/20/2014  23:48:00     -230.025      -90.363        2.527      132.658      118.042       58.113    17598.256    13933.959     3377.093        4.799        1.745      247.138       64.656        0.068      344.670       21.651      860.015
08/20/2014  23:49:00     -316.473      -35.548       -5.092      117.237      102.100       56.353    13744.627    10424.420     3175.706        6.439        1.367      318.463       59.957        0.035      344.660       21.632      860.016
08/20/2014  23:50:00     -324.459      -24.046      -20.380      118.462       94.439       62.501    14033.321     8918.680     3906.403        6.656        1.343      325.349       59.359        0.033      344.681       21.668      860.030
08/20/2014  23:51:00     -346.069      -75.575      -12.715      161.495      125.357       75.875    26080.716    15714.277     5756.942        8.658        2.378      354.225       80.074        0.051      344.682       21.671      860.038
08/20/2014  23:52:00     -261.608      -68.043       -5.453      139.937      105.904       58.530    19582.501    11215.753     3425.802        5.365        1.711      270.312       57.552        0.045      344.656       21.626      860.035
08/20/2014  23:53:00     -259.550     -120.480        3.332      149.406      140.782       63.814    22322.244    19819.510     4072.253        6.404        2.311      286.149       75.176        0.069      344.620       21.564      860.047
08/20/2014  23:54:00     -235.199      -38.717        5.998      180.034      100.395       69.424    32412.079    10079.224     4819.663        5.207        2.366      238.365       87.497        0.135      344.671       21.652      860.059
08/20/2014  23:55:00     -417.712      -39.461      -33.932       99.158      122.266       51.106     9832.379    14948.997     2611.817       10.229        1.370      419.572       48.477        0.013      344.731       21.754      860.063
08/20/2014  23:56:00     -216.425      -11.134       -8.832      106.765       99.692       53.246    11398.824     9938.410     2835.118        3.560        1.209      216.712       49.294        0.052      344.673       21.655      860.053
08/20/2014  23:57:00     -276.119      -31.782      -21.252      123.218       87.568       56.689    15182.655     7668.238     3213.668        5.188        1.303      277.942       61.635        0.049      344.693       21.689      860.066
08/20/2014  23:58:00     -245.783        0.904      -11.895      123.530       95.830       46.469    15259.646     9183.410     2159.324        4.357        1.330      245.785       51.884        0.045      344.707       21.713      860.070
08/20/2014  23:59:00     -146.475       32.485      -10.114       71.255       61.277       39.578     5077.342     3754.844     1566.420        1.650        0.520      150.034       35.516        0.056      344.637       21.598      860.077
